Time,TemperatureF,DewpointF,PressureIn,WindDirection,WindDirectionDegrees,WindSpeedMPH,WindSpeedGustMPH,Humidity,HourlyPrecipIn,Conditions,Clouds,dailyrainin,SoftwareType,DateUTC
2013-07-28 00:01:00,46.4,46.4,29.79,NNE,32,0.0,0.0,100,0.00,,OVC070,0.00,VWS V12.07,2013-07-28 05:01:00,
2013-07-28 00:03:00,46.4,46.4,29.79,NNE,32,0.0,0.0,100,0.00,,OVC070,0.00,VWS V12.07,2013-07-28 05:03:00,
2013-07-28 00:04:00,46.4,46.4,29.79,NNE,32,0.0,0.0,100,0.00,,OVC070,0.00,VWS V12.07,2013-07-28 05:04:00,
2013-07-28 00:05:00,46.4,46.4,29.79,NNE,32,0.0,0.0,100,0.00,,OVC070,0.00,VWS V12.07,2013-07-28 05:05:00,
2013-07-28 00:06:00,46.4,46.4,29.79,NNE,32,0.0,0.0,100,0.00,,OVC070,0.00,VWS V12.07,2013-07-28 05:06:00,
2013-07-28 00:08:00,46.2,46.2,29.79,NNE,32,0.0,0.0,100,0.00,,OVC070,0.00,VWS V12.07,2013-07-28 05:08:00,
2013-07-28 00:09:00,46.2,46.2,29.79,NNE,32,0.0,0.0,100,0.00,,OVC070,0.00,VWS V12.07,2013-07-28 05:09:00,
2013-07-28 00:10:00,46.2,46.2,29.79,NNE,32,0.0,0.0,100,0.00,,OVC070,0.00,VWS V12.07,2013-07-28 05:10:00,
2013-07-28 00:11:00,46.2,46.2,29.79,NNE,32,0.0,0.0,100,0.00,,OVC070,0.00,VWS V12.07,2013-07-28 05:11:00,
2013-07-28 00:13:00,46.2,46.2,29.79,NNE,32,0.0,0.0,100,0.00,,OVC070,0.00,VWS V12.07,2013-07-28 05:13:00,
2013-07-28 00:14:00,46.2,46.2,29.79,NNE,32,0.0,0.0,100,0.00,,OVC070,0.00,VWS V12.07,2013-07-28 05:14:00,
2013-07-28 00:15:00,46.2,46.2,29.79,NNE,32,0.0,0.0,100,0.00,,OVC070,0.00,VWS V12.07,2013-07-28 05:15:00,
2013-07-28 00:16:00,46.2,46.2,29.79,NNE,32,0.0,0.0,100,0.00,,OVC070,0.00,VWS V12.07,2013-07-28 05:16:00,
2013-07-28 00:17:00,46.2,46.2,29.79,NNE,32,0.0,0.0,100,0.00,,OVC070,0.00,VWS V12.07,2013-07-28 05:17:00,
2013-07-28 00:18:00,46.2,46.2,29.79,NNE,32,0.0,0.0,100,0.00,,OVC070,0.00,VWS V12.07,2013-07-28 05:18:00,
2013-07-28 00:19:00,46.2,46.2,29.79,NNE,32,0.0,0.0,100,0.00,,OVC070,0.00,VWS V12.07,2013-07-28 05:19:00,
2013-07-28 00:21:00,46.2,46.2,29.79,NNE,32,0.0,1.0,100,0.00,,OVC070,0.00,VWS V12.07,2013-07-28 05:21:00,
2013-07-28 00:22:00,46.2,46.2,29.79,NNE,32,0.0,1.0,100,0.00,,OVC070,0.00,VWS V12.07,2013-07-28 05:22:00,
2013-07-28 00:23:00,46.2,46.2,29.79,NNE,32,0.0,1.0,100,0.00,,OVC070,0.00,VWS V12.07,2013-07-28 05:23:00,
2013-07-28 00:24:00,46.4,46.4,29.79,NNE,32,0.0,1.0,100,0.00,,OVC070,0.00,VWS V12.07,2013-07-28 05:24:00,
2013-07-28 00:26:00,46.2,46.2,29.79,East,80,0.0,2.0,100,0.00,,OVC070,0.00,VWS V12.07,2013-07-28 05:26:00,
2013-07-28 00:28:00,46.4,46.4,29.79,East,80,0.0,2.0,100,0.00,,OVC070,0.00,VWS V12.07,2013-07-28 05:28:00,
2013-07-28 00:30:00,46.4,46.4,29.79,East,80,0.0,2.0,100,0.00,,OVC070,0.00,VWS V12.07,2013-07-28 05:30:00,
2013-07-28 00:31:00,46.4,46.4,29.79,East,80,0.0,2.0,100,0.00,,OVC070,0.00,VWS V12.07,2013-07-28 05:31:00,
2013-07-28 00:33:00,46.4,46.4,29.79,East,80,0.0,2.0,100,0.00,,OVC070,0.00,VWS V12.07,2013-07-28 05:33:00,
2013-07-28 00:35:00,46.4,46.4,29.79,East,80,0.0,0.0,100,0.00,,OVC070,0.00,VWS V12.07,2013-07-28 05:35:00,
2013-07-28 00:37:00,46.4,46.4,29.79,East,80,0.0,0.0,100,0.00,,OVC070,0.00,VWS V12.07,2013-07-28 05:37:00,
2013-07-28 00:38:00,46.4,46.4,29.79,East,80,0.0,0.0,100,0.00,,OVC070,0.00,VWS V12.07,2013-07-28 05:38:00,
2013-07-28 00:39:00,46.4,46.4,29.79,East,80,0.0,0.0,100,0.00,,OVC070,0.00,VWS V12.07,2013-07-28 05:39:00,
2013-07-28 00:40:00,46.4,46.4,29.79,East,80,0.0,0.0,100,0.00,,OVC070,0.00,VWS V12.07,2013-07-28 05:40:00,
2013-07-28 00:42:00,46.4,46.4,29.79,East,80,0.0,0.0,100,0.00,,OVC070,0.00,VWS V12.07,2013-07-28 05:42:00,
2013-07-28 00:43:00,46.4,46.4,29.79,East,80,0.0,0.0,100,0.00,,OVC070,0.00,VWS V12.07,2013-07-28 05:43:00,
2013-07-28 00:44:00,46.4,46.4,29.79,East,80,0.0,0.0,100,0.00,,OVC070,0.00,VWS V12.07,2013-07-28 05:44:00,
2013-07-28 00:46:00,46.2,46.2,29.79,East,80,0.0,0.0,100,0.00,,OVC070,0.00,VWS V12.07,2013-07-28 05:46:00,
2013-07-28 00:47:00,46.2,46.2,29.79,East,80,0.0,0.0,100,0.00,,OVC070,0.00,VWS V12.07,2013-07-28 05:47:00,
2013-07-28 00:48:00,46.2,46.2,29.79,East,80,0.0,0.0,100,0.00,,OVC070,0.00,VWS V12.07,2013-07-28 05:48:00,
2013-07-28 00:49:00,46.2,46.2,29.79,East,80,0.0,0.0,100,0.00,,OVC070,0.00,VWS V12.07,2013-07-28 05:49:00,
2013-07-28 00:52:00,46.2,46.2,29.79,East,80,0.0,0.0,100,0.00,,OVC070,0.00,VWS V12.07,2013-07-28 05:52:00,
2013-07-28 00:53:00,46.2,46.2,29.79,East,80,0.0,0.0,100,0.00,,OVC070,0.00,VWS V12.07,2013-07-28 05:53:00,
2013-07-28 00:54:00,46.2,46.2,29.79,East,80,0.0,0.0,100,0.00,,OVC070,0.00,VWS V12.07,2013-07-28 05:54:00,
2013-07-28 00:55:00,46.2,46.2,29.79,East,80,0.0,0.0,100,0.00,,OVC070,0.00,VWS V12.07,2013-07-28 05:55:00,
2013-07-28 00:57:00,46.2,46.2,29.79,East,80,0.0,0.0,100,0.00,,OVC070,0.00,VWS V12.07,2013-07-28 05:57:00,
2013-07-28 00:59:00,46.2,46.2,29.79,East,80,0.0,0.0,100,0.00,,OVC070,0.00,VWS V12.07,2013-07-28 05:59:00,
2013-07-28 01:00:00,46.2,46.2,29.79,East,80,0.0,0.0,100,0.00,,OVC070,0.00,VWS V12.07,2013-07-28 06:00:00,
2013-07-28 01:02:00,46.2,46.2,29.79,East,80,0.0,0.0,100,0.00,,OVC070,0.00,VWS V12.07,2013-07-28 06:02:00,
2013-07-28 01:04:00,46.2,46.2,29.79,East,80,0.0,0.0,100,0.00,,OVC070,0.00,VWS V12.07,2013-07-28 06:04:00,
2013-07-28 01:05:00,46.2,46.2,29.79,East,80,0.0,0.0,100,0.00,,OVC070,0.00,VWS V12.07,2013-07-28 06:05:00,
2013-07-28 01:07:00,46.1,46.1,29.79,East,80,0.0,0.0,100,0.00,,OVC070,0.00,VWS V12.07,2013-07-28 06:07:00,
2013-07-28 01:10:00,46.1,46.1,29.79,East,80,0.0,0.0,100,0.00,,OVC070,0.00,VWS V12.07,2013-07-28 06:10:00,
2013-07-28 01:11:00,46.1,46.1,29.79,East,80,0.0,0.0,100,0.00,,OVC070,0.00,VWS V12.07,2013-07-28 06:11:00,
2013-07-28 01:12:00,46.1,46.1,29.78,East,80,0.0,0.0,100,0.00,,OVC070,0.00,VWS V12.07,2013-07-28 06:12:00,
2013-07-28 01:15:00,46.1,46.1,29.78,East,80,0.0,0.0,100,0.00,,OVC070,0.00,VWS V12.07,2013-07-28 06:15:00,
2013-07-28 01:16:00,46.1,46.1,29.78,East,80,0.0,0.0,100,0.00,,OVC070,0.00,VWS V12.07,2013-07-28 06:16:00,
2013-07-28 01:17:00,46.1,46.1,29.78,East,80,0.0,0.0,100,0.00,,OVC070,0.00,VWS V12.07,2013-07-28 06:17:00,
2013-07-28 01:20:00,46.2,46.2,29.78,East,80,0.0,0.0,100,0.00,,OVC070,0.00,VWS V12.07,2013-07-28 06:20:00,
2013-07-28 01:21:00,46.2,46.2,29.78,East,80,0.0,0.0,100,0.00,,OVC070,0.00,VWS V12.07,2013-07-28 06:21:00,
2013-07-28 01:23:00,46.2,46.2,29.78,East,80,0.0,0.0,100,0.00,,OVC070,0.00,VWS V12.07,2013-07-28 06:23:00,
2013-07-28 01:25:00,46.1,46.1,29.78,East,80,0.0,0.0,100,0.00,,OVC070,0.00,VWS V12.07,2013-07-28 06:25:00,
2013-07-28 01:26:00,46.1,46.1,29.78,East,80,0.0,0.0,100,0.00,,OVC070,0.00,VWS V12.07,2013-07-28 06:26:00,
2013-07-28 01:28:00,46.1,46.1,29.78,East,80,0.0,0.0,100,0.00,,OVC070,0.00,VWS V12.07,2013-07-28 06:28:00,
2013-07-28 01:30:00,46.1,46.1,29.78,East,80,0.0,0.0,100,0.00,,OVC070,0.00,VWS V12.07,2013-07-28 06:30:00,
2013-07-28 01:31:00,46.1,46.1,29.78,East,80,0.0,0.0,100,0.00,,OVC070,0.00,VWS V12.07,2013-07-28 06:31:00,
2013-07-28 01:32:00,46.1,46.1,29.78,East,80,0.0,0.0,100,0.00,,OVC070,0.00,VWS V12.07,2013-07-28 06:32:00,
2013-07-28 01:33:00,46.1,46.1,29.78,East,80,0.0,0.0,100,0.00,,OVC015,0.00,VWS V12.07,2013-07-28 06:33:00,
2013-07-28 01:36:00,46.1,46.1,29.78,East,80,0.0,0.0,100,0.00,,OVC015,0.00,VWS V12.07,2013-07-28 06:36:00,
2013-07-28 01:37:00,46.1,46.1,29.78,East,80,0.0,0.0,100,0.00,,OVC015,0.00,VWS V12.07,2013-07-28 06:37:00,
2013-07-28 01:38:00,46.1,46.1,29.78,East,80,0.0,0.0,100,0.00,,OVC015,0.00,VWS V12.07,2013-07-28 06:38:00,
2013-07-28 01:40:00,46.1,46.1,29.78,East,80,0.0,0.0,100,0.00,,OVC015,0.00,VWS V12.07,2013-07-28 06:40:00,
2013-07-28 01:41:00,46.0,46.0,29.78,East,80,0.0,0.0,100,0.00,,OVC015,0.00,VWS V12.07,2013-07-28 06:41:00,
2013-07-28 01:42:00,46.0,46.0,29.78,East,80,0.0,0.0,100,0.00,,OVC015,0.00,VWS V12.07,2013-07-28 06:42:00,
2013-07-28 01:43:00,46.0,46.0,29.78,East,80,0.0,0.0,100,0.00,,OVC015,0.00,VWS V12.07,2013-07-28 06:43:00,
2013-07-28 01:45:00,46.0,46.0,29.78,East,80,0.0,0.0,100,0.00,,OVC015,0.00,VWS V12.07,2013-07-28 06:45:00,
2013-07-28 01:47:00,46.0,46.0,29.78,East,80,0.0,0.0,100,0.00,,OVC015,0.00,VWS V12.07,2013-07-28 06:47:00,
2013-07-28 01:48:00,45.8,45.8,29.78,East,80,0.0,0.0,100,0.00,,OVC015,0.00,VWS V12.07,2013-07-28 06:48:00,
2013-07-28 01:51:00,45.8,45.8,29.78,East,80,0.0,0.0,100,0.00,,OVC013,0.00,VWS V12.07,2013-07-28 06:51:00,
2013-07-28 01:53:00,45.8,45.8,29.78,East,80,0.0,0.0,100,0.00,,OVC013,0.00,VWS V12.07,2013-07-28 06:53:00,
2013-07-28 01:56:00,45.8,45.8,29.78,East,80,0.0,0.0,100,0.00,,OVC013,0.00,VWS V12.07,2013-07-28 06:56:00,
2013-07-28 01:58:00,45.8,45.8,29.78,East,80,0.0,0.0,100,0.00,,OVC013,0.00,VWS V12.07,2013-07-28 06:58:00,
2013-07-28 01:59:00,45.7,45.7,29.78,East,80,0.0,0.0,100,0.00,,OVC013,0.00,VWS V12.07,2013-07-28 06:59:00,
2013-07-28 02:01:00,45.7,45.7,29.78,East,80,0.0,0.0,100,0.00,,OVC013,0.00,VWS V12.07,2013-07-28 07:01:00,
2013-07-28 02:03:00,45.7,45.7,29.78,East,80,0.0,0.0,100,0.00,,OVC013,0.00,VWS V12.07,2013-07-28 07:03:00,
2013-07-28 02:04:00,45.7,45.7,29.78,East,80,0.0,0.0,100,0.00,,OVC013,0.00,VWS V12.07,2013-07-28 07:04:00,
2013-07-28 02:07:00,45.7,45.7,29.78,East,80,0.0,1.0,100,0.00,,OVC013,0.00,VWS V12.07,2013-07-28 07:07:00,
2013-07-28 02:09:00,45.7,45.7,29.78,East,80,0.0,1.0,100,0.00,,OVC013,0.00,VWS V12.07,2013-07-28 07:09:00,
2013-07-28 02:10:00,45.7,45.7,29.78,East,80,0.0,1.0,100,0.00,,OVC013,0.00,VWS V12.07,2013-07-28 07:10:00,
2013-07-28 02:12:00,45.7,45.7,29.78,East,80,0.0,1.0,100,0.00,,OVC013,0.00,VWS V12.07,2013-07-28 07:12:00,
2013-07-28 02:14:00,45.5,45.5,29.79,East,80,0.0,0.0,100,0.00,,OVC013,0.00,VWS V12.07,2013-07-28 07:14:00,
2013-07-28 02:15:00,45.5,45.5,29.79,East,80,0.0,0.0,100,0.00,,OVC013,0.00,VWS V12.07,2013-07-28 07:15:00,
2013-07-28 02:17:00,45.5,45.5,29.79,East,80,0.0,0.0,100,0.00,,OVC013,0.00,VWS V12.07,2013-07-28 07:17:00,
2013-07-28 02:20:00,45.5,45.5,29.79,East,80,0.0,0.0,100,0.00,,OVC013,0.00,VWS V12.07,2013-07-28 07:20:00,
2013-07-28 02:22:00,45.5,45.5,29.79,East,80,0.0,0.0,100,0.00,,OVC013,0.00,VWS V12.07,2013-07-28 07:22:00,
2013-07-28 02:25:00,45.5,45.5,29.79,East,80,0.0,0.0,100,0.00,,OVC013,0.00,VWS V12.07,2013-07-28 07:25:00,
2013-07-28 02:26:00,45.5,45.5,29.79,East,80,0.0,0.0,100,0.00,,OVC013,0.00,VWS V12.07,2013-07-28 07:26:00,
2013-07-28 02:28:00,45.5,45.5,29.79,East,80,0.0,0.0,100,0.00,,OVC013,0.00,VWS V12.07,2013-07-28 07:28:00,
2013-07-28 02:30:00,45.5,45.5,29.79,East,80,0.0,0.0,100,0.00,,OVC013,0.00,VWS V12.07,2013-07-28 07:30:00,
2013-07-28 02:31:00,45.5,45.5,29.79,East,80,0.0,0.0,100,0.00,,OVC013,0.00,VWS V12.07,2013-07-28 07:31:00,
2013-07-28 02:33:00,45.5,45.5,29.79,East,80,0.0,0.0,100,0.00,,OVC021,0.00,VWS V12.07,2013-07-28 07:33:00,
2013-07-28 02:35:00,45.5,45.5,29.79,East,80,0.0,0.0,100,0.00,,OVC021,0.00,VWS V12.07,2013-07-28 07:35:00,
2013-07-28 02:36:00,45.4,45.4,29.79,East,80,0.0,0.0,100,0.00,,OVC021,0.00,VWS V12.07,2013-07-28 07:36:00,
2013-07-28 02:37:00,45.4,45.4,29.79,East,80,0.0,0.0,100,0.00,,OVC021,0.00,VWS V12.07,2013-07-28 07:37:00,
2013-07-28 02:38:00,45.4,45.4,29.79,East,80,0.0,0.0,100,0.00,,OVC021,0.00,VWS V12.07,2013-07-28 07:38:00,
2013-07-28 02:40:00,45.4,45.4,29.79,East,80,0.0,0.0,100,0.00,,OVC021,0.00,VWS V12.07,2013-07-28 07:40:00,
2013-07-28 02:42:00,45.4,45.4,29.79,East,80,0.0,0.0,100,0.00,,OVC021,0.00,VWS V12.07,2013-07-28 07:42:00,
2013-07-28 02:44:00,45.4,45.4,29.78,East,80,0.0,0.0,100,0.00,,OVC021,0.00,VWS V12.07,2013-07-28 07:44:00,
2013-07-28 02:46:00,45.4,45.4,29.78,East,80,0.0,0.0,100,0.00,,OVC021,0.00,VWS V12.07,2013-07-28 07:46:00,
2013-07-28 02:47:00,45.4,45.4,29.78,East,80,0.0,0.0,100,0.00,,OVC021,0.00,VWS V12.07,2013-07-28 07:47:00,
2013-07-28 02:48:00,45.4,45.4,29.78,East,80,0.0,0.0,100,0.00,,OVC021,0.00,VWS V12.07,2013-07-28 07:48:00,
2013-07-28 02:49:00,45.4,45.4,29.78,East,80,0.0,0.0,100,0.00,,OVC070,0.00,VWS V12.07,2013-07-28 07:49:00,
2013-07-28 02:51:00,45.4,45.4,29.78,East,80,0.0,0.0,100,0.00,,OVC070,0.00,VWS V12.07,2013-07-28 07:51:00,
2013-07-28 02:52:00,45.4,45.4,29.78,East,80,0.0,0.0,100,0.00,,OVC070,0.00,VWS V12.07,2013-07-28 07:52:00,
2013-07-28 02:53:00,45.4,45.4,29.78,East,80,0.0,0.0,100,0.00,,OVC070,0.00,VWS V12.07,2013-07-28 07:53:00,
2013-07-28 02:55:00,45.4,45.4,29.78,East,80,0.0,0.0,100,0.00,,OVC070,0.00,VWS V12.07,2013-07-28 07:55:00,
2013-07-28 02:57:00,45.4,45.4,29.78,East,80,0.0,0.0,100,0.00,,OVC070,0.00,VWS V12.07,2013-07-28 07:57:00,
2013-07-28 02:58:00,45.4,45.4,29.78,East,80,0.0,0.0,100,0.00,,OVC070,0.00,VWS V12.07,2013-07-28 07:58:00,
2013-07-28 03:00:00,45.4,45.4,29.78,East,80,0.0,0.0,100,0.00,,OVC070,0.00,VWS V12.07,2013-07-28 08:00:00,
2013-07-28 03:02:00,45.4,45.4,29.78,East,80,0.0,0.0,100,0.00,,OVC070,0.00,VWS V12.07,2013-07-28 08:02:00,
2013-07-28 03:03:00,45.4,45.4,29.78,East,80,0.0,0.0,100,0.00,,OVC070,0.00,VWS V12.07,2013-07-28 08:03:00,
2013-07-28 03:06:00,45.4,45.4,29.78,East,80,0.0,0.0,100,0.00,,OVC070,0.00,VWS V12.07,2013-07-28 08:06:00,
2013-07-28 03:07:00,45.4,45.4,29.78,East,80,0.0,0.0,100,0.00,,OVC070,0.00,VWS V12.07,2013-07-28 08:07:00,
2013-07-28 03:08:00,45.2,45.2,29.78,East,80,0.0,0.0,100,0.00,,OVC070,0.00,VWS V12.07,2013-07-28 08:08:00,
2013-07-28 03:09:00,45.2,45.2,29.78,East,80,0.0,0.0,100,0.00,,OVC070,0.00,VWS V12.07,2013-07-28 08:09:00,
2013-07-28 03:12:00,45.2,45.2,29.78,East,80,0.0,0.0,100,0.00,,OVC070,0.00,VWS V12.07,2013-07-28 08:12:00,
2013-07-28 03:13:00,45.2,45.2,29.79,East,80,0.0,0.0,100,0.00,,OVC070,0.00,VWS V12.07,2013-07-28 08:13:00,
2013-07-28 03:14:00,45.2,45.2,29.79,East,80,0.0,0.0,100,0.00,,OVC070,0.00,VWS V12.07,2013-07-28 08:14:00,
2013-07-28 03:17:00,45.2,45.2,29.79,East,80,0.0,0.0,100,0.00,,OVC070,0.00,VWS V12.07,2013-07-28 08:17:00,
2013-07-28 03:18:00,45.2,45.2,29.79,East,80,0.0,0.0,100,0.00,,OVC070,0.00,VWS V12.07,2013-07-28 08:18:00,
2013-07-28 03:19:00,45.2,45.2,29.79,East,80,0.0,0.0,100,0.00,,OVC070,0.00,VWS V12.07,2013-07-28 08:19:00,
2013-07-28 03:23:00,45.2,45.2,29.79,East,80,0.0,0.0,100,0.00,,OVC070,0.00,VWS V12.07,2013-07-28 08:23:00,
2013-07-28 03:24:00,45.2,45.2,29.79,East,80,0.0,0.0,100,0.00,,OVC070,0.00,VWS V12.07,2013-07-28 08:24:00,
2013-07-28 03:25:00,45.2,45.2,29.79,East,80,0.0,0.0,100,0.00,,OVC070,0.00,VWS V12.07,2013-07-28 08:25:00,
2013-07-28 03:28:00,45.2,45.2,29.78,East,80,0.0,0.0,100,0.00,,OVC070,0.00,VWS V12.07,2013-07-28 08:28:00,
2013-07-28 03:29:00,45.2,45.2,29.78,East,80,0.0,0.0,100,0.00,,OVC070,0.00,VWS V12.07,2013-07-28 08:29:00,
2013-07-28 03:30:00,45.2,45.2,29.78,East,80,0.0,0.0,100,0.00,,OVC070,0.00,VWS V12.07,2013-07-28 08:30:00,
2013-07-28 03:33:00,45.2,45.2,29.78,East,80,0.0,0.0,100,0.00,,OVC070,0.00,VWS V12.07,2013-07-28 08:33:00,
2013-07-28 03:34:00,45.2,45.2,29.78,East,80,0.0,0.0,100,0.00,,OVC070,0.00,VWS V12.07,2013-07-28 08:34:00,
2013-07-28 03:35:00,45.2,45.2,29.78,East,80,0.0,0.0,100,0.00,,OVC070,0.00,VWS V12.07,2013-07-28 08:35:00,
2013-07-28 03:38:00,45.2,45.2,29.78,East,80,0.0,0.0,100,0.00,,OVC070,0.00,VWS V12.07,2013-07-28 08:38:00,
2013-07-28 03:39:00,45.2,45.2,29.78,East,80,0.0,0.0,100,0.00,,OVC070,0.00,VWS V12.07,2013-07-28 08:39:00,
2013-07-28 03:41:00,45.1,45.1,29.78,East,80,0.0,0.0,100,0.00,,OVC070,0.00,VWS V12.07,2013-07-28 08:41:00,
2013-07-28 03:43:00,45.1,45.1,29.78,East,80,0.0,0.0,100,0.00,,OVC070,0.00,VWS V12.07,2013-07-28 08:43:00,
2013-07-28 03:45:00,44.9,44.9,29.78,East,80,0.0,0.0,100,0.00,,OVC070,0.00,VWS V12.07,2013-07-28 08:45:00,
2013-07-28 03:47:00,44.9,44.9,29.78,East,80,0.0,0.0,100,0.00,,OVC070,0.00,VWS V12.07,2013-07-28 08:47:00,
2013-07-28 03:48:00,44.9,44.9,29.78,East,80,0.0,0.0,100,0.00,,OVC018,0.00,VWS V12.07,2013-07-28 08:48:00,
2013-07-28 03:50:00,44.9,44.9,29.78,East,80,0.0,0.0,100,0.00,,OVC018,0.00,VWS V12.07,2013-07-28 08:50:00,
2013-07-28 03:52:00,44.8,44.8,29.78,East,80,0.0,0.0,100,0.00,,OVC018,0.00,VWS V12.07,2013-07-28 08:52:00,
2013-07-28 03:54:00,44.8,44.8,29.78,East,80,0.0,0.0,100,0.00,,OVC018,0.00,VWS V12.07,2013-07-28 08:54:00,
2013-07-28 03:55:00,44.8,44.8,29.78,East,80,0.0,0.0,100,0.00,,OVC018,0.00,VWS V12.07,2013-07-28 08:55:00,
2013-07-28 03:58:00,44.8,44.8,29.77,East,80,0.0,0.0,100,0.00,,OVC018,0.00,VWS V12.07,2013-07-28 08:58:00,
2013-07-28 03:59:00,44.8,44.8,29.77,East,80,0.0,0.0,100,0.00,,OVC018,0.00,VWS V12.07,2013-07-28 08:59:00,
2013-07-28 04:01:00,44.8,44.8,29.77,East,80,0.0,0.0,100,0.00,,OVC018,0.00,VWS V12.07,2013-07-28 09:01:00,
2013-07-28 04:02:00,44.8,44.8,29.77,East,80,0.0,0.0,100,0.00,,OVC018,0.00,VWS V12.07,2013-07-28 09:02:00,
2013-07-28 04:03:00,44.8,44.8,29.77,East,80,0.0,0.0,100,0.00,,OVC018,0.00,VWS V12.07,2013-07-28 09:03:00,
2013-07-28 04:04:00,44.8,44.8,29.77,East,80,0.0,0.0,100,0.00,,OVC018,0.00,VWS V12.07,2013-07-28 09:04:00,
2013-07-28 04:06:00,44.8,44.8,29.77,East,80,0.0,0.0,100,0.00,,OVC018,0.00,VWS V12.07,2013-07-28 09:06:00,
2013-07-28 04:07:00,44.8,44.8,29.77,East,80,0.0,0.0,100,0.00,,OVC018,0.00,VWS V12.07,2013-07-28 09:07:00,
2013-07-28 04:08:00,44.8,44.8,29.77,East,80,0.0,0.0,100,0.00,,OVC018,0.00,VWS V12.07,2013-07-28 09:08:00,
2013-07-28 04:09:00,44.8,44.8,29.77,East,80,0.0,0.0,100,0.00,,OVC018,0.00,VWS V12.07,2013-07-28 09:09:00,
2013-07-28 04:11:00,44.8,44.8,29.77,East,80,0.0,0.0,100,0.00,,OVC018,0.00,VWS V12.07,2013-07-28 09:11:00,
2013-07-28 04:13:00,44.8,44.8,29.77,East,80,0.0,0.0,100,0.00,,OVC018,0.00,VWS V12.07,2013-07-28 09:13:00,
2013-07-28 04:14:00,44.8,44.8,29.77,East,80,0.0,0.0,100,0.00,,OVC018,0.00,VWS V12.07,2013-07-28 09:14:00,
2013-07-28 04:15:00,44.8,44.8,29.77,East,80,0.0,0.0,100,0.00,,OVC018,0.00,VWS V12.07,2013-07-28 09:15:00,
2013-07-28 04:16:00,44.8,44.8,29.77,East,80,0.0,0.0,100,0.00,,OVC018,0.00,VWS V12.07,2013-07-28 09:16:00,
2013-07-28 04:18:00,44.8,44.8,29.77,East,80,0.0,0.0,100,0.00,,OVC018,0.00,VWS V12.07,2013-07-28 09:18:00,
2013-07-28 04:19:00,44.8,44.8,29.77,East,80,0.0,0.0,100,0.00,,OVC018,0.00,VWS V12.07,2013-07-28 09:19:00,
2013-07-28 04:20:00,44.9,44.9,29.77,East,80,0.0,0.0,100,0.00,,OVC018,0.00,VWS V12.07,2013-07-28 09:20:00,
2013-07-28 04:22:00,44.9,44.9,29.77,East,80,0.0,0.0,100,0.00,,OVC018,0.00,VWS V12.07,2013-07-28 09:22:00,
2013-07-28 04:23:00,44.9,44.9,29.77,East,80,0.0,0.0,100,0.00,,OVC018,0.00,VWS V12.07,2013-07-28 09:23:00,
2013-07-28 04:24:00,44.9,44.9,29.77,East,80,0.0,0.0,100,0.00,,OVC018,0.00,VWS V12.07,2013-07-28 09:24:00,
2013-07-28 04:26:00,44.9,44.9,29.77,East,80,0.0,0.0,100,0.00,,OVC018,0.00,VWS V12.07,2013-07-28 09:26:00,
2013-07-28 04:27:00,44.9,44.9,29.76,East,80,0.0,0.0,100,0.00,,OVC018,0.00,VWS V12.07,2013-07-28 09:27:00,
2013-07-28 04:28:00,45.1,45.1,29.76,East,80,0.0,0.0,100,0.00,,OVC018,0.00,VWS V12.07,2013-07-28 09:28:00,
2013-07-28 04:29:00,45.1,45.1,29.76,East,80,0.0,0.0,100,0.00,,OVC018,0.00,VWS V12.07,2013-07-28 09:29:00,
2013-07-28 04:30:00,45.1,45.1,29.76,East,80,0.0,0.0,100,0.00,,OVC018,0.00,VWS V12.07,2013-07-28 09:30:00,
2013-07-28 04:31:00,45.1,45.1,29.76,East,80,0.0,0.0,100,0.00,,OVC018,0.00,VWS V12.07,2013-07-28 09:31:00,
2013-07-28 04:33:00,45.1,45.1,29.76,East,80,0.0,0.0,100,0.00,,BKN013,0.00,VWS V12.07,2013-07-28 09:33:00,
2013-07-28 04:34:00,45.1,45.1,29.76,East,80,0.0,0.0,100,0.00,,BKN013,0.00,VWS V12.07,2013-07-28 09:34:00,
2013-07-28 04:35:00,45.1,45.1,29.76,East,80,0.0,0.0,100,0.00,,BKN013,0.00,VWS V12.07,2013-07-28 09:35:00,
2013-07-28 04:36:00,45.1,45.1,29.76,East,80,0.0,0.0,100,0.00,,BKN013,0.00,VWS V12.07,2013-07-28 09:36:00,
2013-07-28 04:38:00,45.2,45.2,29.76,East,80,0.0,0.0,100,0.00,,BKN013,0.00,VWS V12.07,2013-07-28 09:38:00,
2013-07-28 04:39:00,45.2,45.2,29.76,East,80,0.0,0.0,100,0.00,,BKN013,0.00,VWS V12.07,2013-07-28 09:39:00,
2013-07-28 04:40:00,45.2,45.2,29.76,East,80,0.0,0.0,100,0.00,,BKN013,0.00,VWS V12.07,2013-07-28 09:40:00,
2013-07-28 04:41:00,45.2,45.2,29.76,East,80,0.0,0.0,100,0.00,,BKN013,0.00,VWS V12.07,2013-07-28 09:41:00,
2013-07-28 04:43:00,45.2,45.2,29.76,East,80,0.0,0.0,100,0.00,,BKN013,0.00,VWS V12.07,2013-07-28 09:43:00,
2013-07-28 04:44:00,45.2,45.2,29.76,East,80,0.0,0.0,100,0.00,,BKN013,0.00,VWS V12.07,2013-07-28 09:44:00,
2013-07-28 04:46:00,45.4,45.4,29.76,East,80,0.0,0.0,100,0.00,,BKN013,0.00,VWS V12.07,2013-07-28 09:46:00,
2013-07-28 04:48:00,45.4,45.4,29.76,East,80,0.0,0.0,100,0.00,,OVC015,0.00,VWS V12.07,2013-07-28 09:48:00,
2013-07-28 04:49:00,45.4,45.4,29.76,East,80,0.0,0.0,100,0.00,,OVC015,0.00,VWS V12.07,2013-07-28 09:49:00,
2013-07-28 04:52:00,45.5,45.5,29.76,East,80,0.0,0.0,100,0.00,,OVC015,0.00,VWS V12.07,2013-07-28 09:52:00,
2013-07-28 04:54:00,45.5,45.5,29.76,East,80,0.0,2.0,100,0.00,,OVC015,0.00,VWS V12.07,2013-07-28 09:54:00,
2013-07-28 04:57:00,45.5,45.5,29.76,NE,41,0.0,2.0,100,0.00,,OVC015,0.00,VWS V12.07,2013-07-28 09:57:00,
2013-07-28 04:58:00,45.7,45.7,29.77,NE,41,0.0,2.0,100,0.00,,OVC015,0.00,VWS V12.07,2013-07-28 09:58:00,
2013-07-28 04:59:00,45.7,45.7,29.77,NE,41,0.0,2.0,100,0.00,,OVC015,0.00,VWS V12.07,2013-07-28 09:59:00,
2013-07-28 05:00:00,45.7,45.7,29.77,NE,41,0.0,2.0,100,0.00,,OVC015,0.00,VWS V12.07,2013-07-28 10:00:00,
2013-07-28 05:02:00,45.7,45.7,29.77,NE,41,0.0,2.0,100,0.00,,OVC015,0.00,VWS V12.07,2013-07-28 10:02:00,
2013-07-28 05:03:00,45.8,45.8,29.77,NE,41,0.0,2.0,100,0.00,,OVC015,0.00,VWS V12.07,2013-07-28 10:03:00,
2013-07-28 05:04:00,45.8,45.8,29.77,NE,41,0.0,0.0,100,0.00,,OVC015,0.00,VWS V12.07,2013-07-28 10:04:00,
2013-07-28 05:05:00,45.8,45.8,29.77,NE,41,0.0,0.0,100,0.00,,OVC015,0.00,VWS V12.07,2013-07-28 10:05:00,
2013-07-28 05:08:00,45.8,45.8,29.77,NE,41,0.0,0.0,100,0.00,,OVC015,0.00,VWS V12.07,2013-07-28 10:08:00,
2013-07-28 05:09:00,46.0,46.0,29.77,NE,41,0.0,0.0,100,0.00,,OVC015,0.00,VWS V12.07,2013-07-28 10:09:00,
2013-07-28 05:10:00,46.0,46.0,29.77,NE,41,0.0,1.0,100,0.00,,OVC015,0.00,VWS V12.07,2013-07-28 10:10:00,
2013-07-28 05:13:00,46.0,46.0,29.77,NE,41,0.0,1.0,100,0.00,,OVC015,0.00,VWS V12.07,2013-07-28 10:13:00,
2013-07-28 05:14:00,46.1,46.1,29.77,NE,41,0.0,0.0,100,0.00,,OVC015,0.00,VWS V12.07,2013-07-28 10:14:00,
2013-07-28 05:15:00,46.1,46.1,29.77,NE,41,1.0,1.0,100,0.00,,OVC015,0.00,VWS V12.07,2013-07-28 10:15:00,
2013-07-28 05:18:00,46.1,46.1,29.77,NE,42,0.0,1.0,100,0.00,,OVC015,0.00,VWS V12.07,2013-07-28 10:18:00,
2013-07-28 05:19:00,46.1,46.1,29.77,NE,42,0.0,1.0,100,0.00,,OVC015,0.00,VWS V12.07,2013-07-28 10:19:00,
2013-07-28 05:20:00,46.1,46.1,29.77,NE,42,0.0,1.0,100,0.00,,OVC015,0.00,VWS V12.07,2013-07-28 10:20:00,
2013-07-28 05:21:00,46.2,46.2,29.77,NE,42,0.0,1.0,100,0.00,,OVC015,0.00,VWS V12.07,2013-07-28 10:21:00,
2013-07-28 05:22:00,46.2,46.2,29.77,NE,42,0.0,1.0,100,0.00,,OVC015,0.00,VWS V12.07,2013-07-28 10:22:00,
2013-07-28 05:23:00,46.2,46.2,29.77,NE,44,2.0,2.0,100,0.00,,OVC015,0.00,VWS V12.07,2013-07-28 10:23:00,
2013-07-28 05:24:00,46.2,46.2,29.77,NE,44,0.0,2.0,100,0.00,,OVC015,0.00,VWS V12.07,2013-07-28 10:24:00,
2013-07-28 05:25:00,46.2,46.2,29.77,NE,44,0.0,2.0,100,0.00,,OVC015,0.00,VWS V12.07,2013-07-28 10:25:00,
2013-07-28 05:27:00,46.2,46.2,29.77,NE,44,0.0,2.0,100,0.00,,OVC015,0.00,VWS V12.07,2013-07-28 10:27:00,
2013-07-28 05:28:00,46.4,46.4,29.77,NE,44,0.0,2.0,100,0.00,,OVC015,0.00,VWS V12.07,2013-07-28 10:28:00,
2013-07-28 05:29:00,46.4,46.4,29.77,NE,44,0.0,2.0,100,0.00,,OVC015,0.00,VWS V12.07,2013-07-28 10:29:00,
2013-07-28 05:30:00,46.4,46.4,29.77,NE,44,0.0,2.0,100,0.00,,OVC015,0.00,VWS V12.07,2013-07-28 10:30:00,
2013-07-28 05:32:00,46.4,46.4,29.77,NE,44,0.0,2.0,100,0.00,,OVC015,0.00,VWS V12.07,2013-07-28 10:32:00,
2013-07-28 05:34:00,46.4,46.4,29.77,NE,44,0.0,2.0,100,0.00,,OVC008,0.00,VWS V12.07,2013-07-28 10:34:00,
2013-07-28 05:35:00,46.5,46.5,29.77,NE,44,2.0,2.0,100,0.00,,OVC008,0.00,VWS V12.07,2013-07-28 10:35:00,
2013-07-28 05:37:00,46.5,46.5,29.77,NE,43,0.0,2.0,100,0.00,,OVC008,0.00,VWS V12.07,2013-07-28 10:37:00,
2013-07-28 05:39:00,46.5,46.5,29.77,NE,43,0.0,2.0,100,0.00,,OVC008,0.00,VWS V12.07,2013-07-28 10:39:00,
2013-07-28 05:40:00,46.7,46.7,29.77,NE,43,0.0,2.0,100,0.00,,OVC008,0.00,VWS V12.07,2013-07-28 10:40:00,
2013-07-28 05:42:00,46.7,46.7,29.77,NE,43,0.0,2.0,100,0.00,,OVC008,0.00,VWS V12.07,2013-07-28 10:42:00,
2013-07-28 05:43:00,46.7,46.7,29.76,NE,43,0.0,2.0,100,0.00,,OVC008,0.00,VWS V12.07,2013-07-28 10:43:00,
2013-07-28 05:44:00,46.7,46.7,29.76,NE,43,0.0,0.0,100,0.00,,OVC008,0.00,VWS V12.07,2013-07-28 10:44:00,
2013-07-28 05:45:00,46.7,46.7,29.76,NE,43,0.0,0.0,100,0.00,,OVC008,0.00,VWS V12.07,2013-07-28 10:45:00,
2013-07-28 05:47:00,46.8,46.8,29.76,NE,43,0.0,0.0,100,0.00,,OVC008,0.00,VWS V12.07,2013-07-28 10:47:00,
2013-07-28 05:48:00,46.8,46.8,29.76,NE,43,0.0,0.0,100,0.00,,OVC008,0.00,VWS V12.07,2013-07-28 10:48:00,
2013-07-28 05:50:00,46.8,46.8,29.76,NNE,30,0.0,4.0,100,0.00,,OVC006,0.00,VWS V12.07,2013-07-28 10:50:00,
2013-07-28 05:52:00,46.8,46.8,29.76,NNE,30,0.0,4.0,100,0.00,,OVC006,0.00,VWS V12.07,2013-07-28 10:52:00,
2013-07-28 05:53:00,46.8,46.8,29.76,NNE,30,0.0,4.0,100,0.00,,OVC006,0.00,VWS V12.07,2013-07-28 10:53:00,
2013-07-28 05:54:00,46.8,46.8,29.76,NNE,28,1.0,4.0,100,0.00,,OVC006,0.00,VWS V12.07,2013-07-28 10:54:00,
2013-07-28 05:55:00,47.0,47.0,29.76,NNE,28,0.0,3.0,100,0.00,,OVC006,0.00,VWS V12.07,2013-07-28 10:55:00,
2013-07-28 05:56:00,47.0,47.0,29.76,NNE,28,0.0,3.0,100,0.00,,OVC006,0.00,VWS V12.07,2013-07-28 10:56:00,
2013-07-28 05:58:00,47.0,47.0,29.77,NNE,28,0.0,3.0,100,0.00,,OVC006,0.00,VWS V12.07,2013-07-28 10:58:00,
2013-07-28 05:59:00,47.0,47.0,29.77,NNE,28,0.0,3.0,100,0.00,,OVC006,0.00,VWS V12.07,2013-07-28 10:59:00,
2013-07-28 06:00:00,47.0,47.0,29.77,NNE,28,0.0,3.0,100,0.00,,OVC006,0.00,VWS V12.07,2013-07-28 11:00:00,
2013-07-28 06:01:00,47.0,47.0,29.77,NNE,28,0.0,3.0,100,0.00,,OVC006,0.00,VWS V12.07,2013-07-28 11:01:00,
2013-07-28 06:03:00,47.1,47.1,29.77,NNE,28,0.0,3.0,100,0.00,,OVC006,0.00,VWS V12.07,2013-07-28 11:03:00,
2013-07-28 06:04:00,47.1,47.1,29.77,East,94,2.0,3.0,100,0.00,,OVC006,0.00,VWS V12.07,2013-07-28 11:04:00,
2013-07-28 06:06:00,47.1,47.1,29.77,NW,314,0.0,3.0,100,0.00,,OVC006,0.00,VWS V12.07,2013-07-28 11:06:00,
2013-07-28 06:07:00,47.1,47.1,29.77,NW,314,0.0,3.0,100,0.00,,OVC006,0.00,VWS V12.07,2013-07-28 11:07:00,
2013-07-28 06:08:00,47.3,47.3,29.77,NNE,30,0.0,3.0,100,0.00,,OVC006,0.00,VWS V12.07,2013-07-28 11:08:00,
2013-07-28 06:10:00,47.3,47.3,29.77,NNE,30,0.0,3.0,100,0.00,,OVC006,0.00,VWS V12.07,2013-07-28 11:10:00,
2013-07-28 06:11:00,47.3,47.3,29.77,NNE,30,0.0,3.0,100,0.00,,OVC006,0.00,VWS V12.07,2013-07-28 11:11:00,
2013-07-28 06:12:00,47.3,47.3,29.77,ENE,58,0.0,0.0,100,0.00,,OVC006,0.00,VWS V12.07,2013-07-28 11:12:00,
2013-07-28 06:13:00,47.3,47.3,29.77,ENE,58,0.0,3.0,100,0.00,,OVC006,0.00,VWS V12.07,2013-07-28 11:13:00,
2013-07-28 06:16:00,47.4,47.4,29.77,ENE,58,0.0,0.0,100,0.00,,OVC006,0.00,VWS V12.07,2013-07-28 11:16:00,
2013-07-28 06:17:00,47.4,47.4,29.77,ENE,58,0.0,1.0,100,0.00,,OVC006,0.00,VWS V12.07,2013-07-28 11:17:00,
2013-07-28 06:18:00,47.4,47.4,29.77,ENE,62,0.0,2.0,100,0.00,,OVC006,0.00,VWS V12.07,2013-07-28 11:18:00,
2013-07-28 06:21:00,47.6,47.6,29.77,ENE,62,0.0,2.0,100,0.00,,OVC006,0.00,VWS V12.07,2013-07-28 11:21:00,
2013-07-28 06:23:00,47.6,47.6,29.77,ENE,62,0.0,2.0,100,0.00,,OVC006,0.00,VWS V12.07,2013-07-28 11:23:00,
2013-07-28 06:27:00,47.7,47.7,29.77,ENE,65,0.0,2.0,100,0.00,,OVC006,0.00,VWS V12.07,2013-07-28 11:27:00,
2013-07-28 06:28:00,47.7,47.7,29.77,ENE,65,0.0,2.0,100,0.00,,OVC006,0.00,VWS V12.07,2013-07-28 11:28:00,
2013-07-28 06:32:00,47.9,47.9,29.77,ENE,78,0.0,2.0,100,0.00,,,0.00,VWS V12.07,2013-07-28 11:32:00,
2013-07-28 06:33:00,47.9,47.9,29.77,ENE,78,0.0,2.0,100,0.00,,,0.00,VWS V12.07,2013-07-28 11:33:00,
2013-07-28 06:34:00,47.9,47.9,29.77,ENE,78,0.0,2.0,100,0.00,,,0.00,VWS V12.07,2013-07-28 11:34:00,
2013-07-28 06:38:00,48.0,48.0,29.77,ENE,78,0.0,0.0,100,0.00,,,0.00,VWS V12.07,2013-07-28 11:38:00,
2013-07-28 06:39:00,48.0,48.0,29.77,ENE,78,0.0,0.0,100,0.00,,,0.00,VWS V12.07,2013-07-28 11:39:00,
2013-07-28 06:43:00,48.0,48.0,29.77,ENE,78,0.0,1.0,100,0.00,,,0.00,VWS V12.07,2013-07-28 11:43:00,
2013-07-28 06:44:00,48.2,48.2,29.77,ENE,78,0.0,1.0,100,0.00,,,0.00,VWS V12.07,2013-07-28 11:44:00,
2013-07-28 06:45:00,48.2,48.2,29.77,ENE,78,0.0,0.0,100,0.00,,,0.00,VWS V12.07,2013-07-28 11:45:00,
2013-07-28 06:48:00,48.2,48.2,29.77,ENE,78,0.0,1.0,100,0.00,,OVC004,0.00,VWS V12.07,2013-07-28 11:48:00,
2013-07-28 06:49:00,48.2,48.2,29.77,ENE,78,0.0,1.0,100,0.00,,OVC004,0.00,VWS V12.07,2013-07-28 11:49:00,
2013-07-28 06:50:00,48.2,48.2,29.77,ENE,78,0.0,2.0,100,0.00,,OVC004,0.00,VWS V12.07,2013-07-28 11:50:00,
2013-07-28 06:53:00,48.3,48.3,29.77,ENE,77,1.0,3.0,100,0.00,,OVC004,0.00,VWS V12.07,2013-07-28 11:53:00,
2013-07-28 06:54:00,48.3,48.3,29.77,ENE,77,0.0,3.0,100,0.00,,OVC004,0.00,VWS V12.07,2013-07-28 11:54:00,
2013-07-28 06:55:00,48.3,48.3,29.77,NE,46,1.0,5.0,100,0.00,,OVC004,0.00,VWS V12.07,2013-07-28 11:55:00,
2013-07-28 06:59:00,48.5,48.5,29.77,NNE,20,0.0,5.0,100,0.00,,OVC004,0.00,VWS V12.07,2013-07-28 11:59:00,
2013-07-28 07:00:00,48.5,48.5,29.77,NNE,20,0.0,5.0,100,0.00,,OVC004,0.00,VWS V12.07,2013-07-28 12:00:00,
2013-07-28 07:01:00,48.5,48.5,29.77,NNE,20,0.0,5.0,100,0.00,,OVC004,0.00,VWS V12.07,2013-07-28 12:01:00,
2013-07-28 07:04:00,48.6,48.6,29.77,NNE,20,0.0,0.0,100,0.00,,OVC004,0.00,VWS V12.07,2013-07-28 12:04:00,
2013-07-28 07:05:00,48.6,48.6,29.77,NNE,20,0.0,0.0,100,0.00,,OVC004,0.00,VWS V12.07,2013-07-28 12:05:00,
2013-07-28 07:06:00,48.6,48.6,29.77,NNE,20,0.0,0.0,100,0.00,,OVC004,0.00,VWS V12.07,2013-07-28 12:06:00,
2013-07-28 07:09:00,48.8,48.8,29.77,NNE,20,0.0,1.0,100,0.00,,OVC004,0.00,VWS V12.07,2013-07-28 12:09:00,
2013-07-28 07:10:00,48.8,48.8,29.77,NNE,20,0.0,1.0,100,0.00,,OVC004,0.00,VWS V12.07,2013-07-28 12:10:00,
2013-07-28 07:11:00,48.8,48.8,29.77,NNE,20,0.0,1.0,100,0.00,,OVC004,0.00,VWS V12.07,2013-07-28 12:11:00,
2013-07-28 07:12:00,48.8,48.8,29.77,NNE,20,0.0,1.0,100,0.00,,OVC004,0.00,VWS V12.07,2013-07-28 12:12:00,
2013-07-28 07:14:00,48.8,48.8,29.77,ENE,62,0.0,2.0,100,0.00,,OVC004,0.00,VWS V12.07,2013-07-28 12:14:00,
2013-07-28 07:16:00,48.8,48.8,29.77,ENE,62,0.0,2.0,100,0.00,,OVC004,0.00,VWS V12.07,2013-07-28 12:16:00,
2013-07-28 07:17:00,48.8,48.8,29.77,North,4,0.0,3.0,100,0.00,,OVC004,0.00,VWS V12.07,2013-07-28 12:17:00,
2013-07-28 07:19:00,48.9,48.9,29.77,NW,318,1.0,4.0,100,0.00,,OVC004,0.00,VWS V12.07,2013-07-28 12:19:00,
2013-07-28 07:21:00,49.1,49.1,29.77,NW,318,0.0,4.0,100,0.00,,OVC004,0.00,VWS V12.07,2013-07-28 12:21:00,
2013-07-28 07:22:00,49.1,49.1,29.77,NW,318,0.0,4.0,100,0.00,,OVC004,0.00,VWS V12.07,2013-07-28 12:22:00,
2013-07-28 07:23:00,49.1,49.1,29.77,NW,318,2.0,4.0,100,0.00,,OVC004,0.00,VWS V12.07,2013-07-28 12:23:00,
2013-07-28 07:25:00,49.1,49.1,29.77,NW,318,0.0,4.0,100,0.00,,OVC004,0.00,VWS V12.07,2013-07-28 12:25:00,
2013-07-28 07:27:00,49.2,49.2,29.77,NW,318,0.0,2.0,100,0.00,,OVC004,0.00,VWS V12.07,2013-07-28 12:27:00,
2013-07-28 07:28:00,49.2,49.2,29.76,NW,318,0.0,2.0,100,0.00,,OVC004,0.00,VWS V12.07,2013-07-28 12:28:00,
2013-07-28 07:30:00,49.2,49.2,29.76,East,80,0.0,2.0,100,0.00,,OVC004,0.00,VWS V12.07,2013-07-28 12:30:00,
2013-07-28 07:32:00,49.2,49.2,29.76,East,80,0.0,2.0,100,0.00,, +RA,0.00,VWS V12.07,2013-07-28 12:32:00,
2013-07-28 07:33:00,49.2,49.2,29.76,East,80,2.0,2.0,100,0.00,, +RA,0.00,VWS V12.07,2013-07-28 12:33:00,
2013-07-28 07:37:00,49.4,49.4,29.76,East,80,0.0,2.0,100,0.00,, +RA,0.00,VWS V12.07,2013-07-28 12:37:00,
2013-07-28 07:38:00,49.4,49.4,29.76,East,80,0.0,2.0,100,0.00,, +RA,0.00,VWS V12.07,2013-07-28 12:38:00,
2013-07-28 07:42:00,49.5,49.5,29.76,East,80,0.0,2.0,100,0.00,, +RA,0.00,VWS V12.07,2013-07-28 12:42:00,
2013-07-28 07:43:00,49.5,49.5,29.77,East,80,0.0,2.0,100,0.00,, +RA,0.00,VWS V12.07,2013-07-28 12:43:00,
2013-07-28 07:44:00,49.5,49.5,29.77,ENE,68,0.0,3.0,100,0.00,, +RA,0.00,VWS V12.07,2013-07-28 12:44:00,
2013-07-28 07:47:00,49.5,49.5,29.77,ENE,68,0.0,3.0,100,0.00,, +RA,0.00,VWS V12.07,2013-07-28 12:47:00,
2013-07-28 07:48:00,49.5,49.5,29.77,ENE,68,1.0,3.0,100,0.00,,OVC004,0.00,VWS V12.07,2013-07-28 12:48:00,
2013-07-28 07:49:00,49.5,49.5,29.77,ENE,68,0.0,3.0,100,0.00,,OVC004,0.00,VWS V12.07,2013-07-28 12:49:00,
2013-07-28 07:52:00,49.6,49.6,29.77,ENE,68,0.0,3.0,100,0.00,,OVC004,0.00,VWS V12.07,2013-07-28 12:52:00,
2013-07-28 07:53:00,49.6,49.6,29.77,ENE,68,0.0,3.0,100,0.00,,OVC004,0.00,VWS V12.07,2013-07-28 12:53:00,
2013-07-28 07:54:00,49.6,49.6,29.77,ENE,68,0.0,2.0,100,0.00,,OVC004,0.00,VWS V12.07,2013-07-28 12:54:00,
2013-07-28 07:55:00,49.6,49.6,29.77,ENE,68,0.0,2.0,100,0.00,,OVC004,0.00,VWS V12.07,2013-07-28 12:55:00,
2013-07-28 07:57:00,49.6,49.6,29.78,NNE,23,4.0,4.0,100,0.00,,OVC004,0.00,VWS V12.07,2013-07-28 12:57:00,
2013-07-28 07:59:00,49.6,49.6,29.78,NNE,12,0.0,4.0,100,0.00,,OVC004,0.00,VWS V12.07,2013-07-28 12:59:00,
2013-07-28 08:00:00,49.6,49.6,29.78,NNE,12,0.0,4.0,100,0.00,,OVC004,0.00,VWS V12.07,2013-07-28 13:00:00,
2013-07-28 08:03:00,49.8,49.8,29.78,NNE,12,0.0,4.0,100,0.00,,OVC004,0.00,VWS V12.07,2013-07-28 13:03:00,
2013-07-28 08:04:00,49.8,49.8,29.78,NNE,12,1.0,1.0,100,0.00,,OVC004,0.00,VWS V12.07,2013-07-28 13:04:00,
2013-07-28 08:05:00,49.8,49.8,29.78,NNE,12,0.0,1.0,100,0.00,,OVC004,0.00,VWS V12.07,2013-07-28 13:05:00,
2013-07-28 08:09:00,49.8,49.8,29.78,NE,46,0.0,3.0,100,0.00,,OVC004,0.00,VWS V12.07,2013-07-28 13:09:00,
2013-07-28 08:10:00,49.8,49.8,29.78,NE,47,1.0,3.0,100,0.00,,OVC004,0.00,VWS V12.07,2013-07-28 13:10:00,
2013-07-28 08:11:00,49.8,49.8,29.78,NE,47,0.0,3.0,100,0.00,,OVC004,0.00,VWS V12.07,2013-07-28 13:11:00,
2013-07-28 08:14:00,49.8,49.8,29.78,NE,47,0.0,2.0,100,0.00,,OVC004,0.00,VWS V12.07,2013-07-28 13:14:00,
2013-07-28 08:15:00,49.8,49.8,29.78,NE,47,0.0,2.0,100,0.00,,OVC004,0.00,VWS V12.07,2013-07-28 13:15:00,
2013-07-28 08:16:00,49.9,49.9,29.78,NE,47,0.0,2.0,100,0.00,,OVC004,0.00,VWS V12.07,2013-07-28 13:16:00,
2013-07-28 08:20:00,49.9,49.9,29.78,NE,47,0.0,2.0,100,0.00,,OVC004,0.00,VWS V12.07,2013-07-28 13:20:00,
2013-07-28 08:21:00,49.9,49.9,29.78,NE,46,1.0,2.0,100,0.00,,OVC004,0.00,VWS V12.07,2013-07-28 13:21:00,
2013-07-28 08:25:00,49.9,49.9,29.78,NE,46,0.0,1.0,100,0.00,,OVC004,0.00,VWS V12.07,2013-07-28 13:25:00,
2013-07-28 08:26:00,49.9,49.9,29.78,NE,46,0.0,2.0,100,0.00,,OVC004,0.00,VWS V12.07,2013-07-28 13:26:00,
2013-07-28 08:27:00,49.9,49.9,29.78,NE,46,0.0,2.0,100,0.00,,OVC004,0.00,VWS V12.07,2013-07-28 13:27:00,
2013-07-28 08:31:00,49.9,49.9,29.79,ENE,59,0.0,2.0,100,0.00,,OVC004,0.00,VWS V12.07,2013-07-28 13:31:00,
2013-07-28 08:32:00,50.1,50.1,29.79,ENE,59,0.0,2.0,100,0.00,,OVC006,0.00,VWS V12.07,2013-07-28 13:32:00,
2013-07-28 08:36:00,50.1,50.1,29.79,North,0,0.0,2.0,100,0.00,,OVC006,0.00,VWS V12.07,2013-07-28 13:36:00,
2013-07-28 08:37:00,50.2,50.2,29.79,North,0,0.0,2.0,100,0.00,,OVC006,0.00,VWS V12.07,2013-07-28 13:37:00,
2013-07-28 08:41:00,50.2,50.2,29.79,North,8,0.0,2.0,100,0.00,,OVC006,0.00,VWS V12.07,2013-07-28 13:41:00,
2013-07-28 08:42:00,50.2,50.2,29.79,North,8,0.0,2.0,100,0.00,,OVC006,0.00,VWS V12.07,2013-07-28 13:42:00,
2013-07-28 08:43:00,50.4,50.4,29.78,North,8,0.0,2.0,100,0.00,,OVC006,0.00,VWS V12.07,2013-07-28 13:43:00,
2013-07-28 08:46:00,50.4,50.4,29.78,North,8,0.0,1.0,100,0.00,,OVC006,0.00,VWS V12.07,2013-07-28 13:46:00,
2013-07-28 08:47:00,50.4,50.4,29.78,North,8,0.0,1.0,100,0.00,,OVC006,0.00,VWS V12.07,2013-07-28 13:47:00,
2013-07-28 08:48:00,50.5,50.5,29.78,NE,47,2.0,2.0,100,0.00,,OVC006,0.00,VWS V12.07,2013-07-28 13:48:00,
2013-07-28 08:51:00,50.5,50.5,29.78,East,80,1.0,3.0,100,0.00,,,0.00,VWS V12.07,2013-07-28 13:51:00,
2013-07-28 08:52:00,50.5,50.5,29.78,NE,43,4.0,6.0,100,0.00,,,0.00,VWS V12.07,2013-07-28 13:52:00,
2013-07-28 08:53:00,50.5,50.5,29.78,NE,37,2.0,6.0,100,0.00,,,0.00,VWS V12.07,2013-07-28 13:53:00,
2013-07-28 08:55:00,50.5,50.5,29.78,NE,37,0.0,0.0,100,0.00,,,0.00,VWS V12.07,2013-07-28 13:55:00,
2013-07-28 08:56:00,50.5,50.5,29.78,NE,37,0.0,1.0,100,0.00,,,0.00,VWS V12.07,2013-07-28 13:56:00,
2013-07-28 08:57:00,50.5,50.5,29.78,NE,37,0.0,1.0,100,0.00,,,0.00,VWS V12.07,2013-07-28 13:57:00,
2013-07-28 08:58:00,50.5,50.5,29.78,NE,37,0.0,1.0,100,0.00,,,0.00,VWS V12.07,2013-07-28 13:58:00,
2013-07-28 09:01:00,50.7,50.7,29.78,ENE,68,4.0,4.0,100,0.00,,,0.00,VWS V12.07,2013-07-28 14:01:00,
2013-07-28 09:02:00,50.7,50.7,29.78,NE,35,0.0,4.0,100,0.00,,,0.00,VWS V12.07,2013-07-28 14:02:00,
2013-07-28 09:03:00,50.7,50.7,29.78,NE,35,0.0,4.0,100,0.00,,,0.00,VWS V12.07,2013-07-28 14:03:00,
2013-07-28 09:04:00,50.7,50.7,29.78,NE,35,0.0,4.0,100,0.00,,,0.00,VWS V12.07,2013-07-28 14:04:00,
2013-07-28 09:07:00,50.7,50.7,29.78,NNE,25,4.0,4.0,100,0.00,,,0.00,VWS V12.07,2013-07-28 14:07:00,
2013-07-28 09:08:00,50.7,50.7,29.78,NNE,14,0.0,4.0,100,0.00,,,0.00,VWS V12.07,2013-07-28 14:08:00,
2013-07-28 09:09:00,50.7,50.7,29.78,NNE,14,1.0,4.0,100,0.00,,,0.00,VWS V12.07,2013-07-28 14:09:00,
2013-07-28 09:12:00,50.7,50.7,29.78,East,85,0.0,4.0,100,0.00,,,0.00,VWS V12.07,2013-07-28 14:12:00,
2013-07-28 09:13:00,50.7,50.7,29.78,East,85,0.0,4.0,100,0.00,,,0.00,VWS V12.07,2013-07-28 14:13:00,
2013-07-28 09:14:00,50.7,50.7,29.78,ENE,65,0.0,1.0,100,0.00,,,0.00,VWS V12.07,2013-07-28 14:14:00,
2013-07-28 09:17:00,50.8,50.8,29.78,ENE,65,0.0,2.0,100,0.00,,,0.00,VWS V12.07,2013-07-28 14:17:00,
2013-07-28 09:18:00,50.8,50.8,29.78,East,89,0.0,3.0,100,0.00,,,0.00,VWS V12.07,2013-07-28 14:18:00,
2013-07-28 09:19:00,50.8,50.8,29.78,East,89,0.0,3.0,100,0.00,,,0.00,VWS V12.07,2013-07-28 14:19:00,
2013-07-28 09:20:00,51.0,51.0,29.78,East,89,0.0,3.0,100,0.00,,,0.00,VWS V12.07,2013-07-28 14:20:00,
2013-07-28 09:22:00,51.0,51.0,29.78,NE,46,0.0,3.0,100,0.00,,,0.00,VWS V12.07,2013-07-28 14:22:00,
2013-07-28 09:23:00,51.1,51.1,29.78,NE,52,1.0,3.0,100,0.00,,,0.00,VWS V12.07,2013-07-28 14:23:00,
2013-07-28 09:24:00,51.1,51.1,29.78,NE,52,0.0,1.0,100,0.00,,,0.00,VWS V12.07,2013-07-28 14:24:00,
2013-07-28 09:25:00,51.3,51.3,29.78,NE,52,1.0,1.0,100,0.00,,,0.00,VWS V12.07,2013-07-28 14:25:00,
2013-07-28 09:28:00,51.4,51.4,29.78,NE,52,0.0,1.0,100,0.00,,,0.00,VWS V12.07,2013-07-28 14:28:00,
2013-07-28 09:29:00,51.6,51.6,29.78,NE,52,0.0,1.0,100,0.00,,,0.00,VWS V12.07,2013-07-28 14:29:00,
2013-07-28 09:30:00,51.7,51.7,29.78,NE,53,2.0,2.0,100,0.00,,,0.00,VWS V12.07,2013-07-28 14:30:00,
2013-07-28 09:31:00,51.7,51.7,29.78,NNE,24,4.0,4.0,100,0.00,,,0.00,VWS V12.07,2013-07-28 14:31:00,
2013-07-28 09:33:00,51.7,51.7,29.78,NNE,15,0.0,4.0,100,0.00,,OVC006,0.00,VWS V12.07,2013-07-28 14:33:00,
2013-07-28 09:34:00,51.7,51.7,29.78,NNE,15,1.0,4.0,100,0.00,,OVC006,0.00,VWS V12.07,2013-07-28 14:34:00,
2013-07-28 09:35:00,51.7,51.7,29.78,NNE,15,0.0,2.0,100,0.00,,OVC006,0.00,VWS V12.07,2013-07-28 14:35:00,
2013-07-28 09:36:00,51.7,51.7,29.78,ENE,65,1.0,2.0,100,0.00,,OVC006,0.00,VWS V12.07,2013-07-28 14:36:00,
2013-07-28 09:38:00,51.9,51.9,29.78,ENE,65,1.0,2.0,100,0.00,,OVC006,0.00,VWS V12.07,2013-07-28 14:38:00,
2013-07-28 09:40:00,51.9,51.9,29.78,ESE,110,0.0,6.0,100,0.00,,OVC006,0.00,VWS V12.07,2013-07-28 14:40:00,
2013-07-28 09:42:00,51.7,51.7,29.78,East,89,0.0,6.0,100,0.00,,OVC006,0.00,VWS V12.07,2013-07-28 14:42:00,
2013-07-28 09:43:00,51.7,51.7,29.78,East,89,0.0,6.0,100,0.00,,OVC006,0.00,VWS V12.07,2013-07-28 14:43:00,
2013-07-28 09:45:00,51.7,51.7,29.78,ENE,58,1.0,4.0,100,0.00,,OVC006,0.00,VWS V12.07,2013-07-28 14:45:00,
2013-07-28 09:46:00,51.7,51.7,29.78,ENE,58,0.0,4.0,100,0.00,,OVC006,0.00,VWS V12.07,2013-07-28 14:46:00,
2013-07-28 09:47:00,51.7,51.7,29.78,NNW,328,3.0,6.0,100,0.00,,OVC006,0.00,VWS V12.07,2013-07-28 14:47:00,
2013-07-28 09:49:00,51.7,51.7,29.78,NNW,328,0.0,6.0,100,0.00,,OVC006,0.00,VWS V12.07,2013-07-28 14:49:00,
2013-07-28 09:50:00,51.7,51.7,29.78,NNW,328,0.0,6.0,100,0.00,,OVC008,0.00,VWS V12.07,2013-07-28 14:50:00,
2013-07-28 09:51:00,51.7,51.7,29.78,East,93,0.0,0.0,100,0.00,,OVC008,0.00,VWS V12.07,2013-07-28 14:51:00,
2013-07-28 09:52:00,51.9,51.9,29.78,WNW,300,0.0,6.0,100,0.00,,OVC008,0.00,VWS V12.07,2013-07-28 14:52:00,
2013-07-28 09:54:00,51.9,51.9,29.78,NW,306,0.0,1.0,100,0.00,,OVC008,0.00,VWS V12.07,2013-07-28 14:54:00,
2013-07-28 09:55:00,51.9,51.9,29.78,NW,306,0.0,1.0,100,0.00,,OVC008,0.00,VWS V12.07,2013-07-28 14:55:00,
2013-07-28 09:56:00,52.0,52.0,29.78,NW,306,1.0,1.0,100,0.00,,OVC008,0.00,VWS V12.07,2013-07-28 14:56:00,
2013-07-28 09:57:00,52.0,52.0,29.78,ENE,75,1.0,3.0,100,0.00,,OVC008,0.00,VWS V12.07,2013-07-28 14:57:00,
2013-07-28 10:00:00,52.0,52.0,29.78,ENE,75,0.0,3.0,100,0.00,,OVC008,0.00,VWS V12.07,2013-07-28 15:00:00,
2013-07-28 10:01:00,52.0,52.0,29.78,ENE,75,0.0,3.0,100,0.00,,OVC008,0.00,VWS V12.07,2013-07-28 15:01:00,
2013-07-28 10:02:00,52.0,52.0,29.78,NNE,28,1.0,4.0,100,0.00,,OVC008,0.00,VWS V12.07,2013-07-28 15:02:00,
2013-07-28 10:03:00,52.0,52.0,29.78,NNE,28,0.0,4.0,100,0.00,,OVC008,0.00,VWS V12.07,2013-07-28 15:03:00,
2013-07-28 10:05:00,51.9,51.9,29.78,NNW,333,1.0,2.0,100,0.00,,OVC008,0.00,VWS V12.07,2013-07-28 15:05:00,
2013-07-28 10:06:00,51.9,51.9,29.78,ENE,58,2.0,4.0,100,0.00,,OVC008,0.00,VWS V12.07,2013-07-28 15:06:00,
2013-07-28 10:07:00,51.9,51.9,29.78,ENE,58,0.0,4.0,100,0.00,,OVC008,0.00,VWS V12.07,2013-07-28 15:07:00,
2013-07-28 10:09:00,51.9,51.9,29.78,ENE,58,0.0,4.0,100,0.00,,OVC008,0.00,VWS V12.07,2013-07-28 15:09:00,
2013-07-28 10:10:00,51.9,51.9,29.78,ENE,58,0.0,4.0,100,0.00,,OVC008,0.00,VWS V12.07,2013-07-28 15:10:00,
2013-07-28 10:11:00,51.9,51.9,29.78,ENE,58,0.0,4.0,100,0.00,,OVC008,0.00,VWS V12.07,2013-07-28 15:11:00,
2013-07-28 10:12:00,52.0,52.0,29.78,ENE,58,0.0,4.0,100,0.00,,OVC008,0.00,VWS V12.07,2013-07-28 15:12:00,
2013-07-28 10:14:00,52.0,52.0,29.78,ENE,58,0.0,0.0,100,0.00,,OVC008,0.00,VWS V12.07,2013-07-28 15:14:00,
2013-07-28 10:15:00,52.0,52.0,29.78,ENE,58,0.0,0.0,100,0.00,,OVC008,0.00,VWS V12.07,2013-07-28 15:15:00,
2013-07-28 10:17:00,52.0,52.0,29.78,SE,131,2.0,2.0,100,0.00,,OVC008,0.00,VWS V12.07,2013-07-28 15:17:00,
2013-07-28 10:20:00,52.2,52.2,29.78,East,91,0.0,3.0,100,0.00,,OVC008,0.00,VWS V12.07,2013-07-28 15:20:00,
2013-07-28 10:21:00,52.2,52.2,29.78,East,91,0.0,3.0,100,0.00,,OVC008,0.00,VWS V12.07,2013-07-28 15:21:00,
2013-07-28 10:22:00,52.3,52.3,29.78,East,91,0.0,3.0,100,0.00,,OVC008,0.00,VWS V12.07,2013-07-28 15:22:00,
2013-07-28 10:23:00,52.3,52.3,29.78,East,91,0.0,3.0,100,0.00,,OVC008,0.00,VWS V12.07,2013-07-28 15:23:00,
2013-07-28 10:26:00,52.3,52.3,29.78,ENE,71,2.0,6.0,100,0.00,,OVC008,0.00,VWS V12.07,2013-07-28 15:26:00,
2013-07-28 10:28:00,52.3,52.3,29.78,ENE,77,0.0,6.0,100,0.00,,OVC008,0.00,VWS V12.07,2013-07-28 15:28:00,
2013-07-28 10:31:00,52.3,52.3,29.78,NE,50,0.0,6.0,100,0.00,,OVC008,0.00,VWS V12.07,2013-07-28 15:31:00,
2013-07-28 10:32:00,52.3,52.3,29.78,NE,50,0.0,6.0,100,0.00,,RA,0.00,VWS V12.07,2013-07-28 15:32:00,
2013-07-28 10:33:00,52.2,52.2,29.78,NE,50,0.0,6.0,100,0.00,,RA,0.00,VWS V12.07,2013-07-28 15:33:00,
2013-07-28 10:37:00,52.2,52.2,29.78,ENE,68,0.0,3.0,100,0.00,,RA,0.00,VWS V12.07,2013-07-28 15:37:00,
2013-07-28 10:38:00,52.2,52.2,29.78,NNE,13,1.0,3.0,100,0.00,,RA,0.00,VWS V12.07,2013-07-28 15:38:00,
2013-07-28 10:39:00,52.2,52.2,29.78,NE,34,0.0,4.0,100,0.00,,RA,0.00,VWS V12.07,2013-07-28 15:39:00,
2013-07-28 10:42:00,52.2,52.2,29.78,East,80,4.0,4.0,100,0.00,,RA,0.00,VWS V12.07,2013-07-28 15:42:00,
2013-07-28 10:43:00,52.2,52.2,29.79,East,97,0.0,4.0,100,0.00,,RA,0.00,VWS V12.07,2013-07-28 15:43:00,
2013-07-28 10:45:00,52.2,52.2,29.79,East,97,0.0,0.0,100,0.00,,RA,0.00,VWS V12.07,2013-07-28 15:45:00,
2013-07-28 10:48:00,52.2,52.2,29.79,East,97,0.0,2.0,100,0.00,,RA,0.00,VWS V12.07,2013-07-28 15:48:00,
2013-07-28 10:49:00,52.2,52.2,29.79,East,97,0.0,2.0,100,0.00,,RA,0.00,VWS V12.07,2013-07-28 15:49:00,
2013-07-28 10:52:00,52.2,52.2,29.79,ENE,76,0.0,0.0,100,0.00,,RA,0.00,VWS V12.07,2013-07-28 15:52:00,
2013-07-28 10:53:00,52.2,52.2,29.79,ESE,108,2.0,4.0,100,0.00,,RA,0.00,VWS V12.07,2013-07-28 15:53:00,
2013-07-28 10:54:00,52.2,52.2,29.79,ENE,60,2.0,4.0,100,0.00,,RA,0.00,VWS V12.07,2013-07-28 15:54:00,
2013-07-28 10:57:00,52.0,52.0,29.79,ENE,65,0.0,4.0,100,0.00,,RA,0.00,VWS V12.07,2013-07-28 15:57:00,
2013-07-28 10:58:00,52.0,52.0,29.79,NE,56,6.0,6.0,100,0.00,,RA,0.00,VWS V12.07,2013-07-28 15:58:00,
2013-07-28 10:59:00,52.0,52.0,29.79,NE,39,3.0,7.0,100,0.00,,RA,0.00,VWS V12.07,2013-07-28 15:59:00,
2013-07-28 11:03:00,52.2,52.2,29.79,ENE,65,0.0,7.0,100,0.00,,RA,0.00,VWS V12.07,2013-07-28 16:03:00,
2013-07-28 11:04:00,52.2,52.2,29.79,East,94,0.0,2.0,100,0.00,,RA,0.00,VWS V12.07,2013-07-28 16:04:00,
2013-07-28 11:05:00,52.2,52.2,29.79,East,94,0.0,2.0,100,0.00,,RA,0.00,VWS V12.07,2013-07-28 16:05:00,
2013-07-28 11:08:00,52.3,52.3,29.79,ENE,68,1.0,4.0,100,0.00,,RA,0.00,VWS V12.07,2013-07-28 16:08:00,
2013-07-28 11:09:00,52.3,52.3,29.79,East,98,0.0,4.0,100,0.00,,RA,0.00,VWS V12.07,2013-07-28 16:09:00,
2013-07-28 11:11:00,52.3,52.3,29.79,North,358,1.0,5.0,100,0.00,,RA,0.00,VWS V12.07,2013-07-28 16:11:00,
2013-07-28 11:13:00,52.5,52.5,29.78,North,358,1.0,5.0,100,0.00,,RA,0.00,VWS V12.07,2013-07-28 16:13:00,
2013-07-28 11:14:00,52.5,52.5,29.78,NE,51,1.0,3.0,100,0.00,,RA,0.00,VWS V12.07,2013-07-28 16:14:00,
2013-07-28 11:15:00,52.5,52.5,29.78,NE,49,1.0,3.0,100,0.00,,RA,0.00,VWS V12.07,2013-07-28 16:15:00,
2013-07-28 11:16:00,52.6,52.6,29.78,NE,34,0.0,5.0,100,0.00,,RA,0.00,VWS V12.07,2013-07-28 16:16:00,
2013-07-28 11:18:00,52.6,52.6,29.78,WSW,239,0.0,5.0,100,0.00,,RA,0.00,VWS V12.07,2013-07-28 16:18:00,
2013-07-28 11:20:00,52.6,52.6,29.78,ENE,66,0.0,5.0,100,0.00,,RA,0.00,VWS V12.07,2013-07-28 16:20:00,
2013-07-28 11:21:00,52.6,52.6,29.78,WNW,295,2.0,5.0,100,0.00,,RA,0.00,VWS V12.07,2013-07-28 16:21:00,
2013-07-28 11:24:00,52.8,52.8,29.78,NE,44,2.0,3.0,100,0.00,,RA,0.00,VWS V12.07,2013-07-28 16:24:00,
2013-07-28 11:25:00,52.8,52.8,29.78,North,5,0.0,5.0,100,0.00,,RA,0.00,VWS V12.07,2013-07-28 16:25:00,
2013-07-28 11:26:00,52.8,52.8,29.78,North,5,1.0,5.0,100,0.00,,RA,0.00,VWS V12.07,2013-07-28 16:26:00,
2013-07-28 11:29:00,52.8,52.8,29.78,NNW,336,3.0,5.0,100,0.00,,RA,0.00,VWS V12.07,2013-07-28 16:29:00,
2013-07-28 11:30:00,52.8,52.8,29.78,NNW,336,0.0,5.0,100,0.00,,RA,0.00,VWS V12.07,2013-07-28 16:30:00,
2013-07-28 11:31:00,52.8,52.8,29.78,East,101,1.0,5.0,100,0.00,,RA,0.00,VWS V12.07,2013-07-28 16:31:00,
2013-07-28 11:32:00,52.8,52.8,29.78,ESE,105,0.0,5.0,100,0.00,,RA,0.00,VWS V12.07,2013-07-28 16:32:00,
2013-07-28 11:34:00,52.9,52.6,29.78,East,89,0.0,3.0,99,0.00,,RA,0.00,VWS V12.07,2013-07-28 16:34:00,
2013-07-28 11:35:00,52.9,52.9,29.78,NE,34,1.0,6.0,100,0.00,,RA,0.00,VWS V12.07,2013-07-28 16:35:00,
2013-07-28 11:36:00,52.9,52.6,29.78,NE,46,1.0,6.0,99,0.00,,RA,0.00,VWS V12.07,2013-07-28 16:36:00,
2013-07-28 11:37:00,52.9,52.6,29.78,NE,42,0.0,7.0,99,0.00,,RA,0.00,VWS V12.07,2013-07-28 16:37:00,
2013-07-28 11:39:00,53.1,52.5,29.78,NE,42,0.0,7.0,98,0.00,,RA,0.00,VWS V12.07,2013-07-28 16:39:00,
2013-07-28 11:40:00,53.1,52.5,29.78,NE,42,0.0,7.0,98,0.00,,RA,0.00,VWS V12.07,2013-07-28 16:40:00,
2013-07-28 11:41:00,53.1,52.5,29.78,NE,42,0.0,7.0,98,0.00,,RA,0.00,VWS V12.07,2013-07-28 16:41:00,
2013-07-28 11:42:00,53.2,52.7,29.78,NE,53,0.0,7.0,98,0.00,,RA,0.00,VWS V12.07,2013-07-28 16:42:00,
2013-07-28 11:44:00,53.2,52.7,29.78,WNW,302,0.0,4.0,98,0.00,,RA,0.00,VWS V12.07,2013-07-28 16:44:00,
2013-07-28 11:46:00,53.2,52.7,29.78,WNW,302,0.0,4.0,98,0.00,,RA,0.00,VWS V12.07,2013-07-28 16:46:00,
2013-07-28 11:47:00,53.2,52.4,29.78,NE,54,6.0,9.0,97,0.00,,RA,0.00,VWS V12.07,2013-07-28 16:47:00,
2013-07-28 11:48:00,53.1,52.3,29.78,NNE,28,0.0,9.0,97,0.00,,RA,0.00,VWS V12.07,2013-07-28 16:48:00,
2013-07-28 11:50:00,53.1,52.5,29.78,NNE,28,0.0,9.0,98,0.00,,OVC012,0.00,VWS V12.07,2013-07-28 16:50:00,
2013-07-28 11:52:00,53.2,52.7,29.78,NE,35,0.0,9.0,98,0.00,,OVC012,0.00,VWS V12.07,2013-07-28 16:52:00,
2013-07-28 11:53:00,53.2,52.7,29.78,NE,35,1.0,9.0,98,0.00,,OVC012,0.00,VWS V12.07,2013-07-28 16:53:00,
2013-07-28 11:55:00,53.2,52.7,29.78,NE,39,3.0,3.0,98,0.00,,OVC012,0.00,VWS V12.07,2013-07-28 16:55:00,
2013-07-28 11:57:00,53.2,52.7,29.79,NE,50,2.0,3.0,98,0.00,,OVC012,0.00,VWS V12.07,2013-07-28 16:57:00,
2013-07-28 11:58:00,53.2,52.9,29.79,South,186,0.0,4.0,99,0.00,,OVC012,0.00,VWS V12.07,2013-07-28 16:58:00,
2013-07-28 11:59:00,53.2,52.9,29.79,South,186,1.0,4.0,99,0.00,,OVC012,0.00,VWS V12.07,2013-07-28 16:59:00,
2013-07-28 12:00:00,53.3,53.0,29.79,NE,38,4.0,6.0,99,0.00,,OVC012,0.00,VWS V12.07,2013-07-28 17:00:00,
2013-07-28 12:02:00,53.2,52.4,29.79,ENE,62,0.0,6.0,97,0.00,,OVC012,0.00,VWS V12.07,2013-07-28 17:02:00,
2013-07-28 12:03:00,53.2,52.4,29.79,ENE,62,0.0,6.0,97,0.00,,OVC012,0.00,VWS V12.07,2013-07-28 17:03:00,
2013-07-28 12:04:00,53.2,52.4,29.79,ENE,62,0.0,1.0,97,0.00,,OVC012,0.00,VWS V12.07,2013-07-28 17:04:00,
2013-07-28 12:05:00,53.2,52.4,29.79,NE,53,1.0,3.0,97,0.00,,OVC012,0.00,VWS V12.07,2013-07-28 17:05:00,
2013-07-28 12:08:00,53.2,52.4,29.79,SSE,155,0.0,4.0,97,0.00,,OVC012,0.00,VWS V12.07,2013-07-28 17:08:00,
2013-07-28 12:09:00,53.2,52.4,29.79,WNW,297,2.0,4.0,97,0.00,,OVC012,0.00,VWS V12.07,2013-07-28 17:09:00,
2013-07-28 12:10:00,53.2,52.4,29.79,NE,53,0.0,5.0,97,0.00,,OVC012,0.00,VWS V12.07,2013-07-28 17:10:00,
2013-07-28 12:13:00,53.3,52.5,29.79,ENE,58,0.0,5.0,97,0.00,,OVC012,0.00,VWS V12.07,2013-07-28 17:13:00,
2013-07-28 12:14:00,53.3,52.5,29.79,SE,139,1.0,2.0,97,0.00,,OVC012,0.00,VWS V12.07,2013-07-28 17:14:00,
2013-07-28 12:15:00,53.3,52.2,29.79,NE,35,1.0,4.0,96,0.00,,OVC012,0.00,VWS V12.07,2013-07-28 17:15:00,
2013-07-28 12:18:00,53.5,52.4,29.79,NE,45,2.0,4.0,96,0.00,,OVC012,0.00,VWS V12.07,2013-07-28 17:18:00,
2013-07-28 12:19:00,53.5,52.4,29.79,NE,46,0.0,4.0,96,0.00,,OVC012,0.00,VWS V12.07,2013-07-28 17:19:00,
2013-07-28 12:20:00,53.5,52.4,29.79,SSE,155,0.0,4.0,96,0.00,,OVC012,0.00,VWS V12.07,2013-07-28 17:20:00,
2013-07-28 12:23:00,53.5,52.4,29.79,East,85,0.0,4.0,96,0.00,,OVC012,0.00,VWS V12.07,2013-07-28 17:23:00,
2013-07-28 12:24:00,53.5,52.4,29.79,East,85,0.0,4.0,96,0.00,,OVC012,0.00,VWS V12.07,2013-07-28 17:24:00,
2013-07-28 12:26:00,53.5,52.4,29.79,North,6,2.0,2.0,96,0.00,,OVC012,0.00,VWS V12.07,2013-07-28 17:26:00,
2013-07-28 12:29:00,53.5,52.7,29.79,NE,46,0.0,3.0,97,0.00,,OVC012,0.00,VWS V12.07,2013-07-28 17:29:00,
2013-07-28 12:30:00,53.5,52.7,29.79,NE,46,0.0,3.0,97,0.00,,OVC012,0.00,VWS V12.07,2013-07-28 17:30:00,
2013-07-28 12:32:00,53.5,52.7,29.79,NNE,13,2.0,3.0,97,0.00,,OVC012,0.00,VWS V12.07,2013-07-28 17:32:00,
2013-07-28 12:34:00,53.5,52.7,29.79,ESE,120,0.0,0.0,97,0.00,,OVC012,0.00,VWS V12.07,2013-07-28 17:34:00,
2013-07-28 12:35:00,53.5,52.7,29.79,ESE,120,2.0,2.0,97,0.00,,OVC012,0.00,VWS V12.07,2013-07-28 17:35:00,
2013-07-28 12:38:00,53.5,53.0,29.79,NE,41,0.0,3.0,98,0.00,,OVC012,0.00,VWS V12.07,2013-07-28 17:38:00,
2013-07-28 12:39:00,53.5,53.0,29.79,East,82,0.0,3.0,98,0.00,,OVC012,0.00,VWS V12.07,2013-07-28 17:39:00,
2013-07-28 12:40:00,53.5,53.0,29.79,East,82,0.0,3.0,98,0.00,,OVC012,0.00,VWS V12.07,2013-07-28 17:40:00,
2013-07-28 12:41:00,53.6,53.0,29.79,East,82,0.0,3.0,98,0.00,,OVC012,0.00,VWS V12.07,2013-07-28 17:41:00,
2013-07-28 12:43:00,53.6,53.3,29.79,East,82,0.0,3.0,99,0.00,,OVC012,0.00,VWS V12.07,2013-07-28 17:43:00,
2013-07-28 12:45:00,53.6,53.0,29.79,East,85,0.0,2.0,98,0.00,,OVC012,0.00,VWS V12.07,2013-07-28 17:45:00,
2013-07-28 12:46:00,53.6,53.3,29.79,ENE,77,1.0,2.0,99,0.00,,OVC012,0.00,VWS V12.07,2013-07-28 17:46:00,
2013-07-28 12:48:00,53.6,53.3,29.79,ENE,77,2.0,2.0,99,0.00,,OVC012,0.00,VWS V12.07,2013-07-28 17:48:00,
2013-07-28 12:49:00,53.6,53.3,29.79,ENE,77,0.0,2.0,99,0.00,,OVC012,0.00,VWS V12.07,2013-07-28 17:49:00,
2013-07-28 12:50:00,53.6,53.3,29.79,ENE,77,0.0,2.0,99,0.00,,-RA,0.00,VWS V12.07,2013-07-28 17:50:00,
2013-07-28 12:51:00,53.6,53.3,29.79,ENE,77,0.0,2.0,99,0.00,,-RA,0.00,VWS V12.07,2013-07-28 17:51:00,
2013-07-28 12:52:00,53.6,53.6,29.79,ENE,77,0.0,2.0,100,0.00,,-RA,0.00,VWS V12.07,2013-07-28 17:52:00,
2013-07-28 12:53:00,53.6,53.6,29.79,ENE,78,0.0,2.0,100,0.00,,-RA,0.00,VWS V12.07,2013-07-28 17:53:00,
2013-07-28 12:54:00,53.6,53.6,29.79,North,4,0.0,4.0,100,0.00,,-RA,0.00,VWS V12.07,2013-07-28 17:54:00,
2013-07-28 12:55:00,53.6,53.6,29.79,North,4,0.0,4.0,100,0.00,,-RA,0.00,VWS V12.07,2013-07-28 17:55:00,
2013-07-28 12:56:00,53.6,53.6,29.79,NE,43,0.0,4.0,100,0.00,,-RA,0.00,VWS V12.07,2013-07-28 17:56:00,
2013-07-28 12:58:00,53.5,53.5,29.80,NE,49,2.0,4.0,100,0.00,,-RA,0.00,VWS V12.07,2013-07-28 17:58:00,
2013-07-28 12:59:00,53.5,53.5,29.80,NE,49,0.0,4.0,100,0.00,,-RA,0.00,VWS V12.07,2013-07-28 17:59:00,
2013-07-28 13:00:00,53.5,53.5,29.80,NE,49,0.0,4.0,100,0.00,,-RA,0.00,VWS V12.07,2013-07-28 18:00:00,
2013-07-28 13:02:00,53.3,53.3,29.80,North,358,1.0,4.0,100,0.00,,-RA,0.00,VWS V12.07,2013-07-28 18:02:00,
2013-07-28 13:03:00,53.3,53.3,29.80,North,358,0.0,4.0,100,0.00,,-RA,0.00,VWS V12.07,2013-07-28 18:03:00,
2013-07-28 13:04:00,53.2,53.2,29.80,North,0,0.0,3.0,100,0.00,,-RA,0.00,VWS V12.07,2013-07-28 18:04:00,
2013-07-28 13:05:00,53.2,53.2,29.80,North,0,0.0,3.0,100,0.00,,-RA,0.00,VWS V12.07,2013-07-28 18:05:00,
2013-07-28 13:08:00,53.1,53.1,29.80,ESE,117,1.0,3.0,100,0.00,,-RA,0.00,VWS V12.07,2013-07-28 18:08:00,
2013-07-28 13:10:00,53.1,53.1,29.80,ESE,117,0.0,3.0,100,0.00,,-RA,0.00,VWS V12.07,2013-07-28 18:10:00,
2013-07-28 13:13:00,52.9,52.9,29.80,ESE,117,1.0,3.0,100,0.00,,-RA,0.00,VWS V12.07,2013-07-28 18:13:00,
2013-07-28 13:15:00,52.9,52.9,29.80,ESE,117,0.0,1.0,100,0.00,,-RA,0.00,VWS V12.07,2013-07-28 18:15:00,
2013-07-28 13:16:00,52.9,52.9,29.80,ESE,117,0.0,1.0,100,0.00,,-RA,0.00,VWS V12.07,2013-07-28 18:16:00,
2013-07-28 13:18:00,52.9,52.9,29.80,NE,56,0.0,3.0,100,0.00,,-RA,0.00,VWS V12.07,2013-07-28 18:18:00,
2013-07-28 13:19:00,52.9,52.9,29.80,NE,50,2.0,5.0,100,0.00,,-RA,0.00,VWS V12.07,2013-07-28 18:19:00,
2013-07-28 13:21:00,52.9,52.9,29.80,SE,134,2.0,5.0,100,0.00,,-RA,0.00,VWS V12.07,2013-07-28 18:21:00,
2013-07-28 13:22:00,52.9,52.9,29.80,ESE,122,0.0,5.0,100,0.00,,-RA,0.00,VWS V12.07,2013-07-28 18:22:00,
2013-07-28 13:23:00,52.8,52.8,29.80,ESE,120,0.0,5.0,100,0.00,,-RA,0.00,VWS V12.07,2013-07-28 18:23:00,
2013-07-28 13:24:00,52.8,52.8,29.80,East,94,2.0,5.0,100,0.00,,-RA,0.00,VWS V12.07,2013-07-28 18:24:00,
2013-07-28 13:26:00,52.9,52.9,29.80,ENE,68,0.0,5.0,100,0.00,,-RA,0.00,VWS V12.07,2013-07-28 18:26:00,
2013-07-28 13:27:00,52.9,52.9,29.80,ENE,68,0.0,5.0,100,0.00,,-RA,0.00,VWS V12.07,2013-07-28 18:27:00,
2013-07-28 13:28:00,52.8,52.8,29.80,ENE,68,0.0,5.0,100,0.00,,-RA,0.00,VWS V12.07,2013-07-28 18:28:00,
2013-07-28 13:29:00,52.8,52.8,29.80,ENE,68,0.0,5.0,100,0.00,,-RA,0.00,VWS V12.07,2013-07-28 18:29:00,
2013-07-28 13:32:00,52.8,52.8,29.80,NE,45,1.0,5.0,100,0.00,,-RA,0.00,VWS V12.07,2013-07-28 18:32:00,
2013-07-28 13:33:00,52.8,52.8,29.80,NE,44,0.0,5.0,100,0.00,,OVC012,0.00,VWS V12.07,2013-07-28 18:33:00,
2013-07-28 13:34:00,52.8,52.8,29.80,NE,45,1.0,5.0,100,0.00,,OVC012,0.00,VWS V12.07,2013-07-28 18:34:00,
2013-07-28 13:37:00,52.9,52.9,29.80,NW,309,0.0,3.0,100,0.00,,OVC012,0.00,VWS V12.07,2013-07-28 18:37:00,
2013-07-28 13:38:00,52.9,52.9,29.80,NW,309,1.0,3.0,100,0.00,,OVC012,0.00,VWS V12.07,2013-07-28 18:38:00,
2013-07-28 13:39:00,52.9,52.9,29.80,NW,309,2.0,3.0,100,0.00,,OVC012,0.00,VWS V12.07,2013-07-28 18:39:00,
2013-07-28 13:43:00,52.9,52.9,29.81,West,276,1.0,4.0,100,0.00,,OVC012,0.00,VWS V12.07,2013-07-28 18:43:00,
2013-07-28 13:44:00,52.9,52.9,29.81,West,276,1.0,1.0,100,0.00,,OVC012,0.00,VWS V12.07,2013-07-28 18:44:00,
2013-07-28 13:48:00,52.8,52.8,29.81,ENE,59,1.0,4.0,100,0.00,,OVC012,0.00,VWS V12.07,2013-07-28 18:48:00,
2013-07-28 13:49:00,52.9,52.9,29.81,ENE,59,0.0,4.0,100,0.00,,OVC012,0.00,VWS V12.07,2013-07-28 18:49:00,
2013-07-28 13:50:00,52.9,52.9,29.81,ENE,59,0.0,4.0,100,0.00,,RA,0.00,VWS V12.07,2013-07-28 18:50:00,
2013-07-28 13:53:00,52.9,52.9,29.81,ENE,76,0.0,6.0,100,0.00,,RA,0.00,VWS V12.07,2013-07-28 18:53:00,
2013-07-28 13:54:00,52.9,52.9,29.81,ENE,76,0.0,0.0,100,0.00,,RA,0.00,VWS V12.07,2013-07-28 18:54:00,
2013-07-28 13:55:00,52.9,52.9,29.81,ENE,76,0.0,0.0,100,0.00,,RA,0.00,VWS V12.07,2013-07-28 18:55:00,
2013-07-28 13:58:00,52.9,52.9,29.81,NNE,18,0.0,3.0,100,0.00,,RA,0.00,VWS V12.07,2013-07-28 18:58:00,
2013-07-28 13:59:00,52.9,52.9,29.81,NNE,13,2.0,3.0,100,0.00,,RA,0.00,VWS V12.07,2013-07-28 18:59:00,
2013-07-28 14:00:00,52.9,52.9,29.81,North,11,0.0,3.0,100,0.00,,RA,0.00,VWS V12.07,2013-07-28 19:00:00,
2013-07-28 14:02:00,52.9,52.9,29.81,ENE,60,2.0,4.0,100,0.00,,RA,0.00,VWS V12.07,2013-07-28 19:02:00,
2013-07-28 14:03:00,52.9,52.9,29.81,ENE,60,0.0,4.0,100,0.00,,RA,0.00,VWS V12.07,2013-07-28 19:03:00,
2013-07-28 14:04:00,52.8,52.8,29.81,ENE,60,0.0,0.0,100,0.00,,RA,0.00,VWS V12.07,2013-07-28 19:04:00,
2013-07-28 14:05:00,52.9,52.9,29.81,ENE,77,1.0,2.0,100,0.00,,RA,0.00,VWS V12.07,2013-07-28 19:05:00,
2013-07-28 14:06:00,52.8,52.8,29.81,NNE,26,2.0,5.0,100,0.00,,RA,0.00,VWS V12.07,2013-07-28 19:06:00,
2013-07-28 14:07:00,52.8,52.8,29.81,WNW,300,1.0,5.0,100,0.00,,RA,0.00,VWS V12.07,2013-07-28 19:07:00,
2013-07-28 14:08:00,52.8,52.8,29.81,NE,47,0.0,5.0,100,0.00,,RA,0.00,VWS V12.07,2013-07-28 19:08:00,
2013-07-28 14:09:00,52.8,52.8,29.81,NE,47,1.0,5.0,100,0.00,,RA,0.00,VWS V12.07,2013-07-28 19:09:00,
2013-07-28 14:10:00,52.8,52.8,29.81,NE,47,0.0,5.0,100,0.00,,RA,0.00,VWS V12.07,2013-07-28 19:10:00,
2013-07-28 14:12:00,52.9,52.9,29.81,NE,47,0.0,5.0,100,0.00,,RA,0.00,VWS V12.07,2013-07-28 19:12:00,
2013-07-28 14:13:00,52.9,52.9,29.82,NE,47,0.0,5.0,100,0.00,,RA,0.00,VWS V12.07,2013-07-28 19:13:00,
2013-07-28 14:14:00,52.9,52.9,29.82,NE,47,1.0,2.0,100,0.00,,RA,0.00,VWS V12.07,2013-07-28 19:14:00,
2013-07-28 14:15:00,52.9,52.9,29.82,NE,46,1.0,2.0,100,0.00,,RA,0.00,VWS V12.07,2013-07-28 19:15:00,
2013-07-28 14:17:00,52.8,52.8,29.82,ENE,76,0.0,6.0,100,0.00,,RA,0.00,VWS V12.07,2013-07-28 19:17:00,
2013-07-28 14:18:00,52.8,52.8,29.82,NE,41,4.0,6.0,100,0.00,,RA,0.00,VWS V12.07,2013-07-28 19:18:00,
2013-07-28 14:19:00,52.8,52.8,29.82,North,0,0.0,6.0,100,0.00,,RA,0.00,VWS V12.07,2013-07-28 19:19:00,
2013-07-28 14:20:00,52.8,52.8,29.82,North,0,0.0,6.0,100,0.00,,RA,0.00,VWS V12.07,2013-07-28 19:20:00,
2013-07-28 14:21:00,52.9,52.9,29.82,North,0,1.0,6.0,100,0.00,,RA,0.00,VWS V12.07,2013-07-28 19:21:00,
2013-07-28 14:23:00,52.9,52.9,29.82,NE,42,1.0,7.0,100,0.00,,RA,0.00,VWS V12.07,2013-07-28 19:23:00,
2013-07-28 14:24:00,52.9,52.9,29.82,ENE,61,0.0,3.0,100,0.00,,RA,0.00,VWS V12.07,2013-07-28 19:24:00,
2013-07-28 14:27:00,52.9,52.9,29.82,ENE,61,0.0,3.0,100,0.00,,RA,0.00,VWS V12.07,2013-07-28 19:27:00,
2013-07-28 14:28:00,52.9,52.9,29.82,ENE,61,0.0,3.0,100,0.00,,RA,0.00,VWS V12.07,2013-07-28 19:28:00,
2013-07-28 14:29:00,52.9,52.9,29.82,ENE,61,0.0,3.0,100,0.00,,RA,0.00,VWS V12.07,2013-07-28 19:29:00,
2013-07-28 14:30:00,53.1,53.1,29.82,NE,37,0.0,3.0,100,0.00,,RA,0.00,VWS V12.07,2013-07-28 19:30:00,
2013-07-28 14:32:00,53.1,53.1,29.82,NW,306,0.0,4.0,100,0.00,,-RA,0.00,VWS V12.07,2013-07-28 19:32:00,
2013-07-28 14:33:00,53.1,53.1,29.82,NNE,12,0.0,5.0,100,0.00,,-RA,0.00,VWS V12.07,2013-07-28 19:33:00,
2013-07-28 14:34:00,53.1,53.1,29.82,NNE,12,1.0,2.0,100,0.00,,-RA,0.00,VWS V12.07,2013-07-28 19:34:00,
2013-07-28 14:35:00,53.1,53.1,29.82,WNW,296,2.0,7.0,100,0.00,,-RA,0.00,VWS V12.07,2013-07-28 19:35:00,
2013-07-28 14:37:00,53.2,53.2,29.82,ENE,67,2.0,7.0,100,0.00,,-RA,0.00,VWS V12.07,2013-07-28 19:37:00,
2013-07-28 14:38:00,53.2,53.2,29.82,SSW,200,1.0,7.0,100,0.00,,-RA,0.00,VWS V12.07,2013-07-28 19:38:00,
2013-07-28 14:39:00,53.2,53.2,29.82,SSW,200,0.0,7.0,100,0.00,,-RA,0.00,VWS V12.07,2013-07-28 19:39:00,
2013-07-28 14:40:00,53.3,53.3,29.82,NE,45,1.0,7.0,100,0.00,,-RA,0.00,VWS V12.07,2013-07-28 19:40:00,
2013-07-28 14:42:00,53.3,53.3,29.83,NE,45,0.0,7.0,100,0.00,,-RA,0.00,VWS V12.07,2013-07-28 19:42:00,
2013-07-28 14:43:00,53.3,53.3,29.83,NE,45,2.0,7.0,100,0.00,,-RA,0.00,VWS V12.07,2013-07-28 19:43:00,
2013-07-28 14:44:00,53.3,53.3,29.83,NE,45,0.0,7.0,100,0.00,,-RA,0.00,VWS V12.07,2013-07-28 19:44:00,
2013-07-28 14:45:00,53.3,53.3,29.83,North,358,0.0,3.0,100,0.00,,-RA,0.00,VWS V12.07,2013-07-28 19:45:00,
2013-07-28 14:48:00,53.3,53.3,29.83,WNW,300,2.0,3.0,100,0.00,,-RA,0.00,VWS V12.07,2013-07-28 19:48:00,
2013-07-28 14:49:00,53.5,53.5,29.83,NE,46,2.0,3.0,100,0.00,,-RA,0.00,VWS V12.07,2013-07-28 19:49:00,
2013-07-28 14:50:00,53.5,53.5,29.83,NNW,335,0.0,3.0,100,0.00,,-RA,0.00,VWS V12.07,2013-07-28 19:50:00,
2013-07-28 14:53:00,53.5,53.5,29.83,North,4,0.0,3.0,100,0.00,,-RA,0.00,VWS V12.07,2013-07-28 19:53:00,
2013-07-28 14:54:00,53.5,53.5,29.83,NNE,16,3.0,3.0,100,0.00,,-RA,0.00,VWS V12.07,2013-07-28 19:54:00,
2013-07-28 14:55:00,53.5,53.5,29.83,NNW,346,2.0,3.0,100,0.00,,-RA,0.00,VWS V12.07,2013-07-28 19:55:00,
2013-07-28 14:58:00,53.5,53.5,29.83,WNW,300,0.0,3.0,100,0.00,,-RA,0.00,VWS V12.07,2013-07-28 19:58:00,
2013-07-28 14:59:00,53.5,53.5,29.83,East,81,3.0,3.0,100,0.00,,-RA,0.00,VWS V12.07,2013-07-28 19:59:00,
2013-07-28 15:00:00,53.3,53.3,29.83,NE,47,2.0,4.0,100,0.00,,-RA,0.00,VWS V12.07,2013-07-28 20:00:00,
2013-07-28 15:01:00,53.3,53.3,29.83,NE,47,0.0,4.0,100,0.00,,-RA,0.00,VWS V12.07,2013-07-28 20:01:00,
2013-07-28 15:03:00,53.3,53.3,29.83,NE,47,1.0,4.0,100,0.00,,-RA,0.00,VWS V12.07,2013-07-28 20:03:00,
2013-07-28 15:04:00,53.3,53.3,29.83,North,8,0.0,4.0,100,0.00,,-RA,0.00,VWS V12.07,2013-07-28 20:04:00,
2013-07-28 15:05:00,53.3,53.3,29.83,ENE,77,1.0,4.0,100,0.00,,-RA,0.00,VWS V12.07,2013-07-28 20:05:00,
2013-07-28 15:06:00,53.2,53.2,29.83,NE,34,3.0,4.0,100,0.00,,-RA,0.00,VWS V12.07,2013-07-28 20:06:00,
2013-07-28 15:07:00,53.2,53.2,29.83,ENE,65,0.0,4.0,100,0.00,,-RA,0.00,VWS V12.07,2013-07-28 20:07:00,
2013-07-28 15:08:00,53.2,53.2,29.83,WSW,252,0.0,4.0,100,0.00,,-RA,0.00,VWS V12.07,2013-07-28 20:08:00,
2013-07-28 15:09:00,53.2,53.2,29.83,WSW,252,0.0,4.0,100,0.00,,-RA,0.00,VWS V12.07,2013-07-28 20:09:00,
2013-07-28 15:10:00,53.2,53.2,29.83,WSW,252,0.0,4.0,100,0.00,,-RA,0.00,VWS V12.07,2013-07-28 20:10:00,
2013-07-28 15:12:00,53.2,53.2,29.83,ESE,103,3.0,4.0,100,0.00,,-RA,0.00,VWS V12.07,2013-07-28 20:12:00,
2013-07-28 15:13:00,53.2,53.2,29.83,North,358,0.0,4.0,100,0.00,,-RA,0.00,VWS V12.07,2013-07-28 20:13:00,
2013-07-28 15:15:00,53.2,53.2,29.83,NW,309,2.0,2.0,100,0.00,,-RA,0.00,VWS V12.07,2013-07-28 20:15:00,
2013-07-28 15:16:00,53.2,53.2,29.83,NW,309,1.0,2.0,100,0.00,,-RA,0.00,VWS V12.07,2013-07-28 20:16:00,
2013-07-28 15:17:00,53.2,53.2,29.83,NW,309,0.0,2.0,100,0.00,,-RA,0.00,VWS V12.07,2013-07-28 20:17:00,
2013-07-28 15:19:00,53.2,53.2,29.83,WNW,293,1.0,4.0,100,0.00,,-RA,0.00,VWS V12.07,2013-07-28 20:19:00,
2013-07-28 15:20:00,53.2,53.2,29.83,North,6,0.0,4.0,100,0.00,,-RA,0.00,VWS V12.07,2013-07-28 20:20:00,
2013-07-28 15:21:00,53.2,53.2,29.83,North,6,0.0,4.0,100,0.00,,-RA,0.00,VWS V12.07,2013-07-28 20:21:00,
2013-07-28 15:22:00,53.2,53.2,29.83,NNE,13,0.0,4.0,100,0.00,,-RA,0.00,VWS V12.07,2013-07-28 20:22:00,
2013-07-28 15:24:00,53.2,53.2,29.83,East,82,0.0,0.0,100,0.00,,-RA,0.00,VWS V12.07,2013-07-28 20:24:00,
2013-07-28 15:25:00,53.3,53.3,29.83,East,82,0.0,1.0,100,0.00,,-RA,0.00,VWS V12.07,2013-07-28 20:25:00,
2013-07-28 15:26:00,53.3,53.3,29.83,East,82,2.0,2.0,100,0.00,,-RA,0.00,VWS V12.07,2013-07-28 20:26:00,
2013-07-28 15:27:00,53.3,53.3,29.83,East,92,0.0,2.0,100,0.00,,-RA,0.00,VWS V12.07,2013-07-28 20:27:00,
2013-07-28 15:28:00,53.3,53.3,29.83,East,92,0.0,2.0,100,0.00,,-RA,0.00,VWS V12.07,2013-07-28 20:28:00,
2013-07-28 15:29:00,53.3,53.3,29.83,East,92,0.0,2.0,100,0.00,,-RA,0.00,VWS V12.07,2013-07-28 20:29:00,
2013-07-28 15:31:00,53.3,53.3,29.83,NNE,22,0.0,3.0,100,0.00,,-RA,0.00,VWS V12.07,2013-07-28 20:31:00,
2013-07-28 15:32:00,53.3,53.3,29.83,NNE,22,0.0,3.0,100,0.00,,,0.00,VWS V12.07,2013-07-28 20:32:00,
2013-07-28 15:33:00,53.3,53.3,29.83,NNE,22,0.0,3.0,100,0.00,,,0.00,VWS V12.07,2013-07-28 20:33:00,
2013-07-28 15:35:00,53.3,53.3,29.83,ENE,65,1.0,2.0,100,0.00,,,0.00,VWS V12.07,2013-07-28 20:35:00,
2013-07-28 15:36:00,53.3,53.3,29.83,NE,41,0.0,2.0,100,0.00,,,0.00,VWS V12.07,2013-07-28 20:36:00,
2013-07-28 15:37:00,53.3,53.3,29.83,NE,41,0.0,2.0,100,0.00,,,0.00,VWS V12.07,2013-07-28 20:37:00,
2013-07-28 15:38:00,53.3,53.3,29.83,NE,41,0.0,2.0,100,0.00,,,0.00,VWS V12.07,2013-07-28 20:38:00,
2013-07-28 15:40:00,53.3,53.3,29.83,NE,41,1.0,2.0,100,0.00,,,0.00,VWS V12.07,2013-07-28 20:40:00,
2013-07-28 15:41:00,53.3,53.3,29.83,NE,34,2.0,2.0,100,0.00,,,0.00,VWS V12.07,2013-07-28 20:41:00,
2013-07-28 15:43:00,53.3,53.3,29.84,NNE,15,0.0,3.0,100,0.00,,,0.00,VWS V12.07,2013-07-28 20:43:00,
2013-07-28 15:45:00,53.3,53.3,29.84,East,85,0.0,5.0,100,0.00,,,0.00,VWS V12.07,2013-07-28 20:45:00,
2013-07-28 15:46:00,53.3,53.3,29.84,ENE,76,0.0,5.0,100,0.00,,,0.00,VWS V12.07,2013-07-28 20:46:00,
2013-07-28 15:48:00,53.3,53.3,29.84,North,0,4.0,5.0,100,0.00,,,0.00,VWS V12.07,2013-07-28 20:48:00,
2013-07-28 15:51:00,53.3,53.3,29.84,NNE,25,0.0,5.0,100,0.00,,RA,0.00,VWS V12.07,2013-07-28 20:51:00,
2013-07-28 15:53:00,53.5,53.5,29.84,East,93,0.0,5.0,100,0.00,,RA,0.00,VWS V12.07,2013-07-28 20:53:00,
2013-07-28 15:54:00,53.6,53.6,29.84,East,93,0.0,0.0,100,0.00,,RA,0.00,VWS V12.07,2013-07-28 20:54:00,
2013-07-28 15:56:00,53.8,53.8,29.84,NNW,343,1.0,7.0,100,0.00,,RA,0.00,VWS V12.07,2013-07-28 20:56:00,
2013-07-28 15:58:00,53.8,53.8,29.85,ENE,58,0.0,7.0,100,0.00,,RA,0.00,VWS V12.07,2013-07-28 20:58:00,
2013-07-28 15:59:00,53.8,53.8,29.85,NE,56,1.0,7.0,100,0.00,,RA,0.00,VWS V12.07,2013-07-28 20:59:00,
2013-07-28 16:02:00,53.8,53.8,29.85,ENE,77,0.0,7.0,100,0.00,,RA,0.00,VWS V12.07,2013-07-28 21:02:00,
2013-07-28 16:03:00,53.8,53.8,29.85,NE,43,2.0,7.0,100,0.00,,RA,0.00,VWS V12.07,2013-07-28 21:03:00,
2013-07-28 16:04:00,53.8,53.8,29.85,NE,43,0.0,2.0,100,0.00,,RA,0.00,VWS V12.07,2013-07-28 21:04:00,
2013-07-28 16:07:00,53.8,53.8,29.85,ENE,70,0.0,2.0,100,0.00,,RA,0.00,VWS V12.07,2013-07-28 21:07:00,
2013-07-28 16:08:00,53.9,53.9,29.85,NNE,33,2.0,3.0,100,0.00,,RA,0.00,VWS V12.07,2013-07-28 21:08:00,
2013-07-28 16:09:00,53.9,53.9,29.85,North,8,2.0,3.0,100,0.00,,RA,0.00,VWS V12.07,2013-07-28 21:09:00,
2013-07-28 16:12:00,53.9,53.9,29.85,North,8,0.0,3.0,100,0.00,,RA,0.00,VWS V12.07,2013-07-28 21:12:00,
2013-07-28 16:14:00,53.9,53.9,29.85,NE,50,1.0,4.0,100,0.00,,RA,0.00,VWS V12.07,2013-07-28 21:14:00,
2013-07-28 16:18:00,53.8,53.8,29.85,North,5,0.0,2.0,100,0.00,,RA,0.00,VWS V12.07,2013-07-28 21:18:00,
2013-07-28 16:19:00,53.8,53.8,29.85,North,5,1.0,2.0,100,0.00,,RA,0.00,VWS V12.07,2013-07-28 21:19:00,
2013-07-28 16:20:00,53.8,53.8,29.85,North,5,0.0,2.0,100,0.00,,RA,0.00,VWS V12.07,2013-07-28 21:20:00,
2013-07-28 16:23:00,53.8,53.8,29.85,West,264,0.0,3.0,100,0.00,,RA,0.00,VWS V12.07,2013-07-28 21:23:00,
2013-07-28 16:24:00,53.6,53.6,29.85,WNW,302,0.0,6.0,100,0.00,,RA,0.00,VWS V12.07,2013-07-28 21:24:00,
2013-07-28 16:25:00,53.6,53.6,29.85,WNW,302,1.0,6.0,100,0.00,,RA,0.00,VWS V12.07,2013-07-28 21:25:00,
2013-07-28 16:26:00,53.5,53.5,29.85,SE,136,3.0,6.0,100,0.00,,RA,0.00,VWS V12.07,2013-07-28 21:26:00,
2013-07-28 16:28:00,53.5,53.5,29.85,NNE,15,0.0,6.0,100,0.00,,RA,0.00,VWS V12.07,2013-07-28 21:28:00,
2013-07-28 16:30:00,53.5,53.5,29.85,NNE,15,0.0,6.0,100,0.00,,RA,0.00,VWS V12.07,2013-07-28 21:30:00,
2013-07-28 16:31:00,53.5,53.5,29.85,NNE,15,0.0,6.0,100,0.00,,RA,0.00,VWS V12.07,2013-07-28 21:31:00,
2013-07-28 16:34:00,53.5,53.5,29.85,NNE,15,1.0,3.0,100,0.00,,RA,0.00,VWS V12.07,2013-07-28 21:34:00,
2013-07-28 16:35:00,53.5,53.5,29.85,NNE,15,0.0,3.0,100,0.00,,RA,0.00,VWS V12.07,2013-07-28 21:35:00,
2013-07-28 16:36:00,53.5,53.5,29.85,NE,36,0.0,3.0,100,0.00,,RA,0.00,VWS V12.07,2013-07-28 21:36:00,
2013-07-28 16:37:00,53.6,53.6,29.85,NE,36,0.0,3.0,100,0.00,,RA,0.00,VWS V12.07,2013-07-28 21:37:00,
2013-07-28 16:39:00,53.6,53.6,29.85,NNE,20,0.0,4.0,100,0.00,,RA,0.00,VWS V12.07,2013-07-28 21:39:00,
2013-07-28 16:40:00,53.6,53.6,29.85,NNE,20,0.0,4.0,100,0.00,,RA,0.00,VWS V12.07,2013-07-28 21:40:00,
2013-07-28 16:41:00,53.6,53.6,29.85,NNE,20,0.0,4.0,100,0.00,,RA,0.00,VWS V12.07,2013-07-28 21:41:00,
2013-07-28 16:42:00,53.6,53.6,29.85,NNE,20,0.0,4.0,100,0.00,,RA,0.00,VWS V12.07,2013-07-28 21:42:00,
2013-07-28 16:44:00,53.6,53.6,29.85,NNE,23,3.0,3.0,100,0.00,,RA,0.00,VWS V12.07,2013-07-28 21:44:00,
2013-07-28 16:45:00,53.6,53.6,29.85,NNE,23,0.0,3.0,100,0.00,,RA,0.00,VWS V12.07,2013-07-28 21:45:00,
2013-07-28 16:46:00,53.6,53.6,29.85,SSE,160,1.0,3.0,100,0.00,,RA,0.00,VWS V12.07,2013-07-28 21:46:00,
2013-07-28 16:47:00,53.6,53.6,29.85,NNE,20,1.0,3.0,100,0.00,,RA,0.00,VWS V12.07,2013-07-28 21:47:00,
2013-07-28 16:49:00,53.6,53.6,29.85,NNE,20,0.0,3.0,100,0.00,,RA,0.00,VWS V12.07,2013-07-28 21:49:00,
2013-07-28 16:51:00,53.5,53.5,29.85,North,0,0.0,6.0,100,0.00,, +RA,0.00,VWS V12.07,2013-07-28 21:51:00,
2013-07-28 16:52:00,53.5,53.5,29.85,North,0,1.0,6.0,100,0.00,, +RA,0.00,VWS V12.07,2013-07-28 21:52:00,
2013-07-28 16:53:00,53.5,53.5,29.85,North,0,1.0,6.0,100,0.00,, +RA,0.00,VWS V12.07,2013-07-28 21:53:00,
2013-07-28 16:55:00,53.5,53.5,29.85,North,0,0.0,2.0,100,0.00,, +RA,0.00,VWS V12.07,2013-07-28 21:55:00,
2013-07-28 16:56:00,53.5,53.5,29.85,NNE,30,0.0,2.0,100,0.00,, +RA,0.00,VWS V12.07,2013-07-28 21:56:00,
2013-07-28 16:57:00,53.5,53.5,29.86,ENE,76,4.0,4.0,100,0.00,, +RA,0.00,VWS V12.07,2013-07-28 21:57:00,
2013-07-28 16:58:00,53.5,53.5,29.86,NW,319,1.0,4.0,100,0.00,, +RA,0.00,VWS V12.07,2013-07-28 21:58:00,
2013-07-28 17:01:00,53.3,53.3,29.86,NNE,27,0.0,4.0,100,0.00,, +RA,0.00,VWS V12.07,2013-07-28 22:01:00,
2013-07-28 17:03:00,53.3,53.3,29.86,ENE,59,0.0,4.0,100,0.00,, +RA,0.00,VWS V12.07,2013-07-28 22:03:00,
2013-07-28 17:06:00,53.2,53.2,29.86,North,7,0.0,6.0,100,0.00,, +RA,0.00,VWS V12.07,2013-07-28 22:06:00,
2013-07-28 17:07:00,53.2,53.2,29.86,North,7,2.0,6.0,100,0.00,, +RA,0.00,VWS V12.07,2013-07-28 22:07:00,
2013-07-28 17:08:00,53.2,53.2,29.86,North,7,0.0,6.0,100,0.00,, +RA,0.00,VWS V12.07,2013-07-28 22:08:00,
2013-07-28 17:09:00,53.2,53.2,29.86,North,8,0.0,6.0,100,0.00,, +RA,0.00,VWS V12.07,2013-07-28 22:09:00,
2013-07-28 17:11:00,53.1,53.1,29.86,North,8,0.0,6.0,100,0.00,, +RA,0.00,VWS V12.07,2013-07-28 22:11:00,
2013-07-28 17:13:00,53.1,53.1,29.86,NNE,21,1.0,6.0,100,0.00,, +RA,0.00,VWS V12.07,2013-07-28 22:13:00,
2013-07-28 17:14:00,53.1,53.1,29.86,NNE,21,2.0,2.0,100,0.00,, +RA,0.00,VWS V12.07,2013-07-28 22:14:00,
2013-07-28 17:16:00,53.1,53.1,29.86,NNE,21,0.0,2.0,100,0.00,, +RA,0.00,VWS V12.07,2013-07-28 22:16:00,
2013-07-28 17:18:00,53.1,53.1,29.86,NNE,22,1.0,2.0,100,0.00,, +RA,0.00,VWS V12.07,2013-07-28 22:18:00,
2013-07-28 17:19:00,53.1,53.1,29.86,NNE,18,0.0,2.0,100,0.00,, +RA,0.00,VWS V12.07,2013-07-28 22:19:00,
2013-07-28 17:22:00,53.1,53.1,29.86,NNE,18,0.0,2.0,100,0.00,, +RA,0.00,VWS V12.07,2013-07-28 22:22:00,
2013-07-28 17:23:00,53.1,53.1,29.86,NNE,18,1.0,2.0,100,0.00,, +RA,0.00,VWS V12.07,2013-07-28 22:23:00,
2013-07-28 17:24:00,53.1,53.1,29.86,NNE,18,0.0,1.0,100,0.00,, +RA,0.00,VWS V12.07,2013-07-28 22:24:00,
2013-07-28 17:27:00,52.9,52.9,29.86,North,8,2.0,4.0,100,0.00,, +RA,0.00,VWS V12.07,2013-07-28 22:27:00,
2013-07-28 17:28:00,52.9,52.9,29.86,North,7,0.0,4.0,100,0.00,, +RA,0.00,VWS V12.07,2013-07-28 22:28:00,
2013-07-28 17:29:00,52.9,52.9,29.86,North,7,0.0,4.0,100,0.00,, +RA,0.00,VWS V12.07,2013-07-28 22:29:00,
2013-07-28 17:30:00,52.9,52.9,29.86,North,7,0.0,4.0,100,0.00,, +RA,0.00,VWS V12.07,2013-07-28 22:30:00,
2013-07-28 17:31:00,52.9,52.9,29.86,North,7,0.0,4.0,100,0.00,, +RA,0.00,VWS V12.07,2013-07-28 22:31:00,
2013-07-28 17:32:00,52.9,52.9,29.86,North,6,0.0,4.0,100,0.00,,,0.00,VWS V12.07,2013-07-28 22:32:00,
2013-07-28 17:33:00,52.9,52.9,29.86,North,8,2.0,4.0,100,0.00,,,0.00,VWS V12.07,2013-07-28 22:33:00,
2013-07-28 17:34:00,52.9,52.9,29.86,North,8,0.0,2.0,100,0.00,,,0.00,VWS V12.07,2013-07-28 22:34:00,
2013-07-28 17:35:00,52.9,52.9,29.86,North,8,0.0,2.0,100,0.00,,,0.00,VWS V12.07,2013-07-28 22:35:00,
2013-07-28 17:36:00,53.1,53.1,29.86,NNE,12,1.0,2.0,100,0.00,,,0.00,VWS V12.07,2013-07-28 22:36:00,
2013-07-28 17:37:00,53.1,53.1,29.86,NNE,33,2.0,2.0,100,0.00,,,0.00,VWS V12.07,2013-07-28 22:37:00,
2013-07-28 17:39:00,52.9,52.9,29.86,West,264,0.0,5.0,100,0.00,,,0.00,VWS V12.07,2013-07-28 22:39:00,
2013-07-28 17:40:00,52.9,52.9,29.86,West,264,0.0,5.0,100,0.00,,,0.00,VWS V12.07,2013-07-28 22:40:00,
2013-07-28 17:42:00,52.9,52.9,29.86,West,264,0.0,5.0,100,0.00,,,0.00,VWS V12.07,2013-07-28 22:42:00,
2013-07-28 17:43:00,52.9,52.9,29.87,West,264,0.0,5.0,100,0.00,,,0.00,VWS V12.07,2013-07-28 22:43:00,
2013-07-28 17:44:00,52.8,52.8,29.87,West,264,0.0,0.0,100,0.00,,,0.00,VWS V12.07,2013-07-28 22:44:00,
2013-07-28 17:45:00,52.8,52.8,29.87,West,264,0.0,0.0,100,0.00,,,0.00,VWS V12.07,2013-07-28 22:45:00,
2013-07-28 17:46:00,52.8,52.8,29.87,West,267,0.0,2.0,100,0.00,,,0.00,VWS V12.07,2013-07-28 22:46:00,
2013-07-28 17:47:00,52.8,52.8,29.87,West,267,0.0,2.0,100,0.00,,,0.00,VWS V12.07,2013-07-28 22:47:00,
2013-07-28 17:48:00,52.8,52.8,29.87,West,267,0.0,2.0,100,0.00,,,0.00,VWS V12.07,2013-07-28 22:48:00,
2013-07-28 17:49:00,52.8,52.8,29.87,West,267,0.0,2.0,100,0.00,,RA,0.00,VWS V12.07,2013-07-28 22:49:00,
2013-07-28 17:50:00,52.8,52.8,29.87,West,267,0.0,2.0,100,0.00,,RA,0.00,VWS V12.07,2013-07-28 22:50:00,
2013-07-28 17:51:00,52.8,52.8,29.87,West,267,1.0,2.0,100,0.00,,RA,0.00,VWS V12.07,2013-07-28 22:51:00,
2013-07-28 17:52:00,52.8,52.8,29.87,West,267,0.0,2.0,100,0.00,,RA,0.00,VWS V12.07,2013-07-28 22:52:00,
2013-07-28 17:53:00,52.8,52.8,29.87,East,79,0.0,3.0,100,0.00,,RA,0.00,VWS V12.07,2013-07-28 22:53:00,
2013-07-28 17:55:00,52.8,52.8,29.87,East,79,1.0,2.0,100,0.00,,RA,0.00,VWS V12.07,2013-07-28 22:55:00,
2013-07-28 17:56:00,52.8,52.8,29.87,East,79,0.0,2.0,100,0.00,,RA,0.00,VWS V12.07,2013-07-28 22:56:00,
2013-07-28 17:57:00,52.8,52.8,29.87,East,79,0.0,2.0,100,0.00,,RA,0.00,VWS V12.07,2013-07-28 22:57:00,
2013-07-28 17:58:00,52.8,52.8,29.87,East,79,0.0,2.0,100,0.00,,RA,0.00,VWS V12.07,2013-07-28 22:58:00,
2013-07-28 18:01:00,52.6,52.6,29.87,East,79,0.0,2.0,100,0.00,,RA,0.00,VWS V12.07,2013-07-28 23:01:00,
2013-07-28 18:02:00,52.6,52.6,29.87,East,79,0.0,2.0,100,0.00,,RA,0.00,VWS V12.07,2013-07-28 23:02:00,
2013-07-28 18:03:00,52.6,52.6,29.87,NE,47,3.0,3.0,100,0.00,,RA,0.00,VWS V12.07,2013-07-28 23:03:00,
2013-07-28 18:06:00,52.5,52.5,29.87,SSE,156,0.0,5.0,100,0.00,,RA,0.00,VWS V12.07,2013-07-28 23:06:00,
2013-07-28 18:07:00,52.5,52.5,29.87,SSE,156,0.0,5.0,100,0.00,,RA,0.00,VWS V12.07,2013-07-28 23:07:00,
2013-07-28 18:08:00,52.5,52.5,29.87,East,87,0.0,5.0,100,0.00,,RA,0.00,VWS V12.07,2013-07-28 23:08:00,
2013-07-28 18:09:00,52.5,52.5,29.87,East,87,0.0,5.0,100,0.00,,RA,0.00,VWS V12.07,2013-07-28 23:09:00,
2013-07-28 18:11:00,52.3,52.3,29.87,NNW,343,0.0,5.0,100,0.00,,RA,0.00,VWS V12.07,2013-07-28 23:11:00,
2013-07-28 18:12:00,52.3,52.3,29.87,North,6,1.0,5.0,100,0.00,,RA,0.00,VWS V12.07,2013-07-28 23:12:00,
2013-07-28 18:14:00,52.3,52.3,29.88,North,6,0.0,2.0,100,0.00,,RA,0.00,VWS V12.07,2013-07-28 23:14:00,
2013-07-28 18:16:00,52.2,52.2,29.88,North,6,0.0,2.0,100,0.00,,RA,0.00,VWS V12.07,2013-07-28 23:16:00,
2013-07-28 18:17:00,52.2,52.2,29.88,North,6,0.0,2.0,100,0.00,,RA,0.00,VWS V12.07,2013-07-28 23:17:00,
2013-07-28 18:19:00,52.2,52.2,29.88,North,6,0.0,2.0,100,0.00,,RA,0.00,VWS V12.07,2013-07-28 23:19:00,
2013-07-28 18:20:00,52.2,52.2,29.88,North,6,2.0,2.0,100,0.00,,RA,0.00,VWS V12.07,2013-07-28 23:20:00,
2013-07-28 18:21:00,52.2,52.2,29.88,NNW,346,1.0,3.0,100,0.00,,RA,0.00,VWS V12.07,2013-07-28 23:21:00,
2013-07-28 18:22:00,52.0,52.0,29.88,ENE,76,0.0,3.0,100,0.00,,RA,0.00,VWS V12.07,2013-07-28 23:22:00,
2013-07-28 18:23:00,52.0,52.0,29.88,ENE,76,2.0,3.0,100,0.00,,RA,0.00,VWS V12.07,2013-07-28 23:23:00,
2013-07-28 18:24:00,52.0,52.0,29.88,ENE,75,0.0,0.0,100,0.00,,RA,0.00,VWS V12.07,2013-07-28 23:24:00,
2013-07-28 18:25:00,52.0,52.0,29.88,ENE,76,1.0,2.0,100,0.00,,RA,0.00,VWS V12.07,2013-07-28 23:25:00,
2013-07-28 18:26:00,52.0,52.0,29.88,ENE,75,0.0,2.0,100,0.00,,RA,0.00,VWS V12.07,2013-07-28 23:26:00,
2013-07-28 18:27:00,52.0,52.0,29.88,WNW,290,4.0,4.0,100,0.00,,RA,0.00,VWS V12.07,2013-07-28 23:27:00,
2013-07-28 18:29:00,52.0,52.0,29.88,WNW,292,0.0,4.0,100,0.00,,RA,0.00,VWS V12.07,2013-07-28 23:29:00,
2013-07-28 18:30:00,52.0,52.0,29.88,WNW,292,1.0,4.0,100,0.00,,RA,0.00,VWS V12.07,2013-07-28 23:30:00,
2013-07-28 18:31:00,52.0,52.0,29.88,WNW,292,0.0,4.0,100,0.00,,OVC015,0.00,VWS V12.07,2013-07-28 23:31:00,
2013-07-28 18:32:00,52.0,52.0,29.88,WNW,292,1.0,4.0,100,0.00,,OVC015,0.00,VWS V12.07,2013-07-28 23:32:00,
2013-07-28 18:34:00,51.9,51.9,29.88,WSW,244,2.0,3.0,100,0.00,,OVC015,0.00,VWS V12.07,2013-07-28 23:34:00,
2013-07-28 18:35:00,51.9,51.9,29.88,WSW,244,0.0,3.0,100,0.00,,OVC015,0.00,VWS V12.07,2013-07-28 23:35:00,
2013-07-28 18:37:00,51.9,51.9,29.88,WSW,244,0.0,3.0,100,0.00,,OVC015,0.00,VWS V12.07,2013-07-28 23:37:00,
2013-07-28 18:38:00,51.9,51.9,29.88,NE,51,4.0,4.0,100,0.00,,OVC015,0.00,VWS V12.07,2013-07-28 23:38:00,
2013-07-28 18:39:00,51.9,51.9,29.88,NNE,14,0.0,4.0,100,0.00,,OVC015,0.00,VWS V12.07,2013-07-28 23:39:00,
2013-07-28 18:40:00,51.9,51.9,29.88,East,88,1.0,4.0,100,0.00,,OVC015,0.00,VWS V12.07,2013-07-28 23:40:00,
2013-07-28 18:42:00,51.7,51.7,29.88,ENE,63,2.0,4.0,100,0.00,,OVC015,0.00,VWS V12.07,2013-07-28 23:42:00,
2013-07-28 18:43:00,51.7,51.7,29.88,NNE,22,1.0,4.0,100,0.00,,OVC015,0.00,VWS V12.07,2013-07-28 23:43:00,
2013-07-28 18:45:00,51.7,51.7,29.88,NW,314,2.0,3.0,100,0.00,,OVC015,0.00,VWS V12.07,2013-07-28 23:45:00,
2013-07-28 18:46:00,51.7,51.7,29.88,NW,314,0.0,3.0,100,0.00,,OVC015,0.00,VWS V12.07,2013-07-28 23:46:00,
2013-07-28 18:47:00,51.7,51.7,29.88,ENE,75,2.0,3.0,100,0.00,,OVC015,0.00,VWS V12.07,2013-07-28 23:47:00,
2013-07-28 18:48:00,51.7,51.4,29.88,NW,325,0.0,3.0,99,0.00,,OVC015,0.00,VWS V12.07,2013-07-28 23:48:00,
2013-07-28 18:50:00,51.9,51.6,29.88,NW,326,1.0,3.0,99,0.00,,OVC013,0.00,VWS V12.07,2013-07-28 23:50:00,
2013-07-28 18:51:00,51.9,51.6,29.88,NW,326,0.0,3.0,99,0.00,,OVC013,0.00,VWS V12.07,2013-07-28 23:51:00,
2013-07-28 18:52:00,51.9,51.6,29.88,NW,326,0.0,3.0,99,0.00,,OVC013,0.00,VWS V12.07,2013-07-28 23:52:00,
2013-07-28 18:53:00,51.9,51.9,29.88,NE,52,2.0,3.0,100,0.00,,OVC013,0.00,VWS V12.07,2013-07-28 23:53:00,
2013-07-28 18:55:00,51.9,51.6,29.88,North,0,0.0,3.0,99,0.00,,OVC013,0.00,VWS V12.07,2013-07-28 23:55:00,
2013-07-28 18:57:00,51.9,51.6,29.88,North,0,1.0,3.0,99,0.00,,OVC013,0.00,VWS V12.07,2013-07-28 23:57:00,
2013-07-28 18:58:00,52.0,51.7,29.88,ESE,105,0.0,3.0,99,0.00,,OVC013,0.00,VWS V12.07,2013-07-28 23:58:00,
2013-07-28 18:59:00,52.0,51.7,29.88,ESE,105,0.0,3.0,99,0.00,,OVC013,0.00,VWS V12.07,2013-07-28 23:59:00,
2013-07-28 19:00:00,52.0,51.7,29.88,ESE,105,0.0,3.0,99,0.00,,OVC013,0.00,VWS V12.07,2013-07-29 00:00:00,
2013-07-28 19:02:00,52.0,51.7,29.88,South,169,1.0,3.0,99,0.00,,OVC013,0.00,VWS V12.07,2013-07-29 00:02:00,
2013-07-28 19:03:00,52.0,51.7,29.88,NNE,24,2.0,4.0,99,0.00,,OVC013,0.00,VWS V12.07,2013-07-29 00:03:00,
2013-07-28 19:04:00,52.0,51.7,29.88,NNE,24,2.0,0.0,99,0.00,,OVC013,0.00,VWS V12.07,2013-07-29 00:04:00,
2013-07-28 19:05:00,52.0,51.7,29.88,NNE,24,0.0,2.0,99,0.00,,OVC013,0.00,VWS V12.07,2013-07-29 00:05:00,
2013-07-28 19:08:00,52.0,52.0,29.88,NW,322,0.0,0.0,100,0.00,,-RA,0.00,VWS V12.07,2013-07-29 00:08:00,
2013-07-28 19:09:00,52.0,52.0,29.88,NW,322,0.0,4.0,100,0.00,,-RA,0.00,VWS V12.07,2013-07-29 00:09:00,
2013-07-28 19:12:00,51.9,51.6,29.88,NNE,17,0.0,4.0,99,0.00,,-RA,0.00,VWS V12.07,2013-07-29 00:12:00,
2013-07-28 19:13:00,51.9,51.6,29.89,North,0,0.0,4.0,99,0.00,,-RA,0.00,VWS V12.07,2013-07-29 00:13:00,
2013-07-28 19:14:00,51.9,51.6,29.89,North,0,0.0,0.0,99,0.00,,-RA,0.00,VWS V12.07,2013-07-29 00:14:00,
2013-07-28 19:17:00,51.7,51.4,29.89,North,0,0.0,2.0,99,0.00,,-RA,0.00,VWS V12.07,2013-07-29 00:17:00,
2013-07-28 19:18:00,51.7,51.4,29.89,North,0,1.0,2.0,99,0.00,,-RA,0.00,VWS V12.07,2013-07-29 00:18:00,
2013-07-28 19:19:00,51.7,51.4,29.89,North,0,0.0,2.0,99,0.00,,-RA,0.00,VWS V12.07,2013-07-29 00:19:00,
2013-07-28 19:20:00,51.7,51.2,29.89,NNE,27,3.0,3.0,98,0.00,,-RA,0.00,VWS V12.07,2013-07-29 00:20:00,
2013-07-28 19:22:00,51.7,51.2,29.89,NNE,12,0.0,3.0,98,0.00,,-RA,0.00,VWS V12.07,2013-07-29 00:22:00,
2013-07-28 19:23:00,51.7,51.2,29.89,NNE,12,0.0,3.0,98,0.00,,-RA,0.00,VWS V12.07,2013-07-29 00:23:00,
2013-07-28 19:24:00,51.7,51.2,29.89,NW,322,0.0,4.0,98,0.00,,-RA,0.00,VWS V12.07,2013-07-29 00:24:00,
2013-07-28 19:25:00,51.6,51.1,29.89,WNW,297,1.0,6.0,98,0.00,,-RA,0.00,VWS V12.07,2013-07-29 00:25:00,
2013-07-28 19:26:00,51.6,51.1,29.89,WNW,297,0.0,6.0,98,0.00,,-RA,0.00,VWS V12.07,2013-07-29 00:26:00,
2013-07-28 19:27:00,51.6,50.8,29.89,WNW,297,0.0,6.0,97,0.00,,-RA,0.00,VWS V12.07,2013-07-29 00:27:00,
2013-07-28 19:28:00,51.6,50.8,29.89,WNW,297,1.0,6.0,97,0.00,,-RA,0.00,VWS V12.07,2013-07-29 00:28:00,
2013-07-28 19:30:00,51.6,50.8,29.89,NW,311,0.0,6.0,97,0.00,,-RA,0.00,VWS V12.07,2013-07-29 00:30:00,
2013-07-28 19:31:00,51.6,50.8,29.89,NE,44,0.0,6.0,97,0.00,,-RA,0.00,VWS V12.07,2013-07-29 00:31:00,
2013-07-28 19:32:00,51.6,50.5,29.89,West,259,0.0,6.0,96,0.00,,,0.00,VWS V12.07,2013-07-29 00:32:00,
2013-07-28 19:34:00,51.6,50.8,29.89,West,259,0.0,0.0,97,0.00,,,0.00,VWS V12.07,2013-07-29 00:34:00,
2013-07-28 19:35:00,51.6,50.8,29.89,West,259,1.0,1.0,97,0.00,,,0.00,VWS V12.07,2013-07-29 00:35:00,
2013-07-28 19:36:00,51.6,50.8,29.89,West,259,0.0,1.0,97,0.00,,,0.00,VWS V12.07,2013-07-29 00:36:00,
2013-07-28 19:38:00,51.6,50.8,29.89,SW,233,0.0,3.0,97,0.00,,,0.00,VWS V12.07,2013-07-29 00:38:00,
2013-07-28 19:39:00,51.6,50.5,29.89,SW,233,1.0,3.0,96,0.00,,,0.00,VWS V12.07,2013-07-29 00:39:00,
2013-07-28 19:40:00,51.6,50.5,29.89,SSE,165,0.0,4.0,96,0.00,,,0.00,VWS V12.07,2013-07-29 00:40:00,
2013-07-28 19:41:00,51.6,50.5,29.89,SSE,165,0.0,4.0,96,0.00,,,0.00,VWS V12.07,2013-07-29 00:41:00,
2013-07-28 19:43:00,51.6,50.8,29.89,SSE,167,0.0,4.0,97,0.00,,,0.00,VWS V12.07,2013-07-29 00:43:00,
2013-07-28 19:44:00,51.6,50.8,29.89,SSE,167,0.0,0.0,97,0.00,,,0.00,VWS V12.07,2013-07-29 00:44:00,
2013-07-28 19:45:00,51.6,50.5,29.89,SSE,167,1.0,1.0,96,0.00,,,0.00,VWS V12.07,2013-07-29 00:45:00,
2013-07-28 19:46:00,51.6,50.5,29.89,South,188,2.0,2.0,96,0.00,,,0.00,VWS V12.07,2013-07-29 00:46:00,
2013-07-28 19:49:00,51.6,50.5,29.89,South,188,0.0,2.0,96,0.00,,,0.00,VWS V12.07,2013-07-29 00:49:00,
2013-07-28 19:50:00,51.6,50.5,29.89,South,188,0.0,2.0,96,0.00,,OVC011,0.00,VWS V12.07,2013-07-29 00:50:00,
2013-07-28 19:52:00,51.6,50.5,29.89,SE,129,0.0,0.0,96,0.00,,OVC011,0.00,VWS V12.07,2013-07-29 00:52:00,
2013-07-28 19:54:00,51.6,50.5,29.89,South,184,0.0,1.0,96,0.00,,OVC011,0.00,VWS V12.07,2013-07-29 00:54:00,
2013-07-28 19:56:00,51.6,50.5,29.89,ENE,71,0.0,2.0,96,0.00,,OVC011,0.00,VWS V12.07,2013-07-29 00:56:00,
2013-07-28 19:57:00,51.6,50.5,29.89,North,0,0.0,4.0,96,0.00,,OVC011,0.00,VWS V12.07,2013-07-29 00:57:00,
2013-07-28 19:58:00,51.6,50.5,29.90,North,0,0.0,4.0,96,0.00,,OVC011,0.00,VWS V12.07,2013-07-29 00:58:00,
2013-07-28 20:00:00,51.6,50.5,29.90,East,84,0.0,4.0,96,0.00,,OVC011,0.00,VWS V12.07,2013-07-29 01:00:00,
2013-07-28 20:01:00,51.6,50.5,29.90,East,101,0.0,4.0,96,0.00,,OVC011,0.00,VWS V12.07,2013-07-29 01:01:00,
2013-07-28 20:02:00,51.7,50.9,29.90,East,101,0.0,4.0,97,0.00,,OVC011,0.00,VWS V12.07,2013-07-29 01:02:00,
2013-07-28 20:03:00,51.6,50.8,29.90,NW,316,0.0,5.0,97,0.00,,OVC011,0.00,VWS V12.07,2013-07-29 01:03:00,
2013-07-28 20:06:00,51.6,50.8,29.90,NW,316,1.0,2.0,97,0.00,,OVC011,0.00,VWS V12.07,2013-07-29 01:06:00,
2013-07-28 20:07:00,51.6,50.5,29.90,NW,316,0.0,2.0,96,0.00,,OVC011,0.00,VWS V12.07,2013-07-29 01:07:00,
2013-07-28 20:08:00,51.6,50.5,29.90,NW,316,0.0,2.0,96,0.00,,OVC011,0.00,VWS V12.07,2013-07-29 01:08:00,
2013-07-28 20:11:00,51.6,50.8,29.90,NW,323,1.0,2.0,97,0.00,,OVC011,0.00,VWS V12.07,2013-07-29 01:11:00,
2013-07-28 20:12:00,51.6,50.5,29.91,NW,323,0.0,2.0,96,0.00,,OVC011,0.00,VWS V12.07,2013-07-29 01:12:00,
2013-07-28 20:13:00,51.6,50.5,29.91,NW,323,0.0,2.0,96,0.00,,OVC011,0.00,VWS V12.07,2013-07-29 01:13:00,
2013-07-28 20:14:00,51.6,50.5,29.91,NW,323,0.0,0.0,96,0.00,,OVC011,0.00,VWS V12.07,2013-07-29 01:14:00,
2013-07-28 20:17:00,51.6,50.5,29.91,NNW,347,0.0,2.0,96,0.00,,OVC011,0.00,VWS V12.07,2013-07-29 01:17:00,
2013-07-28 20:20:00,51.6,50.8,29.91,NNW,347,1.0,2.0,97,0.00,,OVC011,0.00,VWS V12.07,2013-07-29 01:20:00,
2013-07-28 20:23:00,51.6,50.8,29.91,NNW,347,0.0,2.0,97,0.00,,OVC011,0.00,VWS V12.07,2013-07-29 01:23:00,
2013-07-28 20:25:00,51.6,50.8,29.91,NE,46,1.0,2.0,97,0.00,,OVC011,0.00,VWS V12.07,2013-07-29 01:25:00,
2013-07-28 20:28:00,51.6,50.8,29.91,NE,46,0.0,2.0,97,0.00,,OVC011,0.00,VWS V12.07,2013-07-29 01:28:00,
2013-07-28 20:31:00,51.6,51.1,29.91,NE,46,0.0,2.0,98,0.00,,OVC011,0.00,VWS V12.07,2013-07-29 01:31:00,
2013-07-28 20:33:00,51.6,50.8,29.91,NE,51,0.0,2.0,97,0.00,,OVC013,0.00,VWS V12.07,2013-07-29 01:33:00,
2013-07-28 20:34:00,51.4,50.6,29.91,NE,51,0.0,1.0,97,0.00,,OVC013,0.00,VWS V12.07,2013-07-29 01:34:00,
2013-07-28 20:37:00,51.4,50.6,29.91,NE,51,0.0,1.0,97,0.00,,OVC013,0.00,VWS V12.07,2013-07-29 01:37:00,
2013-07-28 20:39:00,51.4,50.6,29.91,NE,51,0.0,1.0,97,0.00,,OVC013,0.00,VWS V12.07,2013-07-29 01:39:00,
2013-07-28 20:43:00,51.4,50.9,29.91,NE,51,0.0,1.0,98,0.00,,OVC013,0.00,VWS V12.07,2013-07-29 01:43:00,
2013-07-28 20:44:00,51.4,50.6,29.91,North,8,0.0,4.0,97,0.00,,OVC013,0.00,VWS V12.07,2013-07-29 01:44:00,
2013-07-28 20:45:00,51.4,50.6,29.91,North,8,0.0,4.0,97,0.00,,OVC013,0.00,VWS V12.07,2013-07-29 01:45:00,
2013-07-28 20:48:00,51.4,50.6,29.91,NW,310,0.0,4.0,97,0.00,,OVC013,0.00,VWS V12.07,2013-07-29 01:48:00,
2013-07-28 20:50:00,51.4,50.6,29.91,NW,310,0.0,4.0,97,0.00,,OVC013,0.00,VWS V12.07,2013-07-29 01:50:00,
2013-07-28 20:55:00,51.3,50.5,29.91,North,2,0.0,1.0,97,0.00,,OVC013,0.00,VWS V12.07,2013-07-29 01:55:00,
2013-07-28 20:56:00,51.3,50.5,29.91,North,2,0.0,1.0,97,0.00,,OVC013,0.00,VWS V12.07,2013-07-29 01:56:00,
2013-07-28 21:00:00,51.1,50.3,29.91,North,2,0.0,2.0,97,0.00,,OVC013,0.00,VWS V12.07,2013-07-29 02:00:00,
2013-07-28 21:01:00,51.1,50.3,29.91,North,2,0.0,2.0,97,0.00,,OVC013,0.00,VWS V12.07,2013-07-29 02:01:00,
2013-07-28 21:03:00,51.0,50.2,29.91,NNE,18,0.0,4.0,97,0.00,,OVC013,0.00,VWS V12.07,2013-07-29 02:03:00,
2013-07-28 21:06:00,51.0,50.2,29.91,NNE,18,0.0,0.0,97,0.00,,OVC013,0.00,VWS V12.07,2013-07-29 02:06:00,
2013-07-28 21:07:00,51.0,50.2,29.91,ENE,65,0.0,2.0,97,0.00,,OVC013,0.00,VWS V12.07,2013-07-29 02:07:00,
2013-07-28 21:08:00,51.0,50.2,29.91,ENE,65,0.0,2.0,97,0.00,,OVC013,0.00,VWS V12.07,2013-07-29 02:08:00,
2013-07-28 21:10:00,51.0,50.2,29.91,ENE,65,0.0,2.0,97,0.00,,OVC013,0.00,VWS V12.07,2013-07-29 02:10:00,
2013-07-28 21:12:00,51.0,50.2,29.92,ENE,65,0.0,2.0,97,0.00,,OVC013,0.00,VWS V12.07,2013-07-29 02:12:00,
2013-07-28 21:13:00,51.0,50.2,29.92,ENE,65,0.0,2.0,97,0.00,,OVC013,0.00,VWS V12.07,2013-07-29 02:13:00,
2013-07-28 21:14:00,51.0,50.2,29.92,ENE,65,0.0,0.0,97,0.00,,OVC013,0.00,VWS V12.07,2013-07-29 02:14:00,
2013-07-28 21:17:00,50.8,50.3,29.92,ENE,65,0.0,0.0,98,0.00,,OVC013,0.00,VWS V12.07,2013-07-29 02:17:00,
2013-07-28 21:18:00,50.8,50.0,29.92,ENE,65,0.0,0.0,97,0.00,,OVC013,0.00,VWS V12.07,2013-07-29 02:18:00,
2013-07-28 21:19:00,50.8,50.3,29.92,ENE,65,0.0,1.0,98,0.00,,OVC013,0.00,VWS V12.07,2013-07-29 02:19:00,
2013-07-28 21:22:00,50.8,50.3,29.92,ENE,65,0.0,1.0,98,0.00,,OVC013,0.00,VWS V12.07,2013-07-29 02:22:00,
2013-07-28 21:23:00,50.8,50.3,29.92,ENE,65,0.0,1.0,98,0.00,,OVC013,0.00,VWS V12.07,2013-07-29 02:23:00,
2013-07-28 21:25:00,50.8,50.3,29.92,ENE,65,0.0,0.0,98,0.00,,OVC013,0.00,VWS V12.07,2013-07-29 02:25:00,
2013-07-28 21:27:00,50.8,50.3,29.92,ENE,65,0.0,0.0,98,0.00,,OVC013,0.00,VWS V12.07,2013-07-29 02:27:00,
2013-07-28 21:28:00,50.8,50.0,29.92,ENE,65,0.0,0.0,97,0.00,,OVC013,0.00,VWS V12.07,2013-07-29 02:28:00,
2013-07-28 21:30:00,50.8,50.0,29.92,ENE,65,0.0,0.0,97,0.00,,OVC013,0.00,VWS V12.07,2013-07-29 02:30:00,
2013-07-28 21:31:00,50.8,50.3,29.92,ENE,65,0.0,0.0,98,0.00,,OVC013,0.00,VWS V12.07,2013-07-29 02:31:00,
2013-07-28 21:33:00,50.8,50.0,29.92,ENE,65,0.0,0.0,97,0.00,,OVC013,0.00,VWS V12.07,2013-07-29 02:33:00,
2013-07-28 21:37:00,50.7,49.9,29.92,NE,47,2.0,3.0,97,0.00,,OVC013,0.00,VWS V12.07,2013-07-29 02:37:00,
2013-07-28 21:38:00,50.7,49.9,29.92,NE,47,0.0,3.0,97,0.00,,OVC013,0.00,VWS V12.07,2013-07-29 02:38:00,
2013-07-28 21:40:00,50.7,49.9,29.92,NE,47,0.0,3.0,97,0.00,,OVC013,0.00,VWS V12.07,2013-07-29 02:40:00,
2013-07-28 21:42:00,50.7,49.9,29.92,NE,47,0.0,3.0,97,0.00,,OVC013,0.00,VWS V12.07,2013-07-29 02:42:00,
2013-07-28 21:44:00,50.7,49.9,29.93,NE,47,0.0,0.0,97,0.00,,OVC013,0.00,VWS V12.07,2013-07-29 02:44:00,
2013-07-28 21:45:00,50.7,49.9,29.93,North,358,1.0,2.0,97,0.00,,OVC013,0.00,VWS V12.07,2013-07-29 02:45:00,
2013-07-28 21:47:00,50.7,49.9,29.93,North,358,0.0,2.0,97,0.00,,OVC013,0.00,VWS V12.07,2013-07-29 02:47:00,
2013-07-28 21:49:00,50.7,49.6,29.93,North,358,0.0,2.0,96,0.00,,OVC013,0.00,VWS V12.07,2013-07-29 02:49:00,
2013-07-28 21:51:00,50.7,49.6,29.93,North,358,0.0,2.0,96,0.00,,OVC011,0.00,VWS V12.07,2013-07-29 02:51:00,
2013-07-28 21:53:00,50.7,49.6,29.93,North,358,0.0,2.0,96,0.00,,OVC011,0.00,VWS V12.07,2013-07-29 02:53:00,
2013-07-28 21:57:00,50.7,49.9,29.93,North,358,0.0,1.0,97,0.00,,OVC011,0.00,VWS V12.07,2013-07-29 02:57:00,
2013-07-28 21:59:00,50.7,49.9,29.93,North,358,0.0,1.0,97,0.00,,OVC011,0.00,VWS V12.07,2013-07-29 02:59:00,
2013-07-28 22:02:00,50.7,49.6,29.93,North,358,0.0,1.0,96,0.00,,OVC011,0.00,VWS V12.07,2013-07-29 03:02:00,
2013-07-28 22:03:00,50.7,49.9,29.93,North,358,0.0,1.0,97,0.00,,OVC011,0.00,VWS V12.07,2013-07-29 03:03:00,
2013-07-28 22:04:00,50.7,49.6,29.93,North,358,0.0,0.0,96,0.00,,OVC011,0.00,VWS V12.07,2013-07-29 03:04:00,
2013-07-28 22:07:00,50.7,49.6,29.93,North,358,0.0,0.0,96,0.00,,OVC011,0.00,VWS V12.07,2013-07-29 03:07:00,
2013-07-28 22:08:00,50.7,49.6,29.93,North,358,0.0,0.0,96,0.00,,OVC011,0.00,VWS V12.07,2013-07-29 03:08:00,
2013-07-28 22:12:00,50.5,49.4,29.93,North,358,0.0,0.0,96,0.00,,OVC011,0.00,VWS V12.07,2013-07-29 03:12:00,
2013-07-28 22:13:00,50.5,49.4,29.93,North,358,0.0,0.0,96,0.00,,OVC011,0.00,VWS V12.07,2013-07-29 03:13:00,
2013-07-28 22:14:00,50.5,49.4,29.93,North,358,0.0,0.0,96,0.00,,OVC011,0.00,VWS V12.07,2013-07-29 03:14:00,
2013-07-28 22:17:00,50.5,49.4,29.93,North,358,0.0,0.0,96,0.00,,OVC011,0.00,VWS V12.07,2013-07-29 03:17:00,
2013-07-28 22:18:00,50.5,49.7,29.93,North,358,0.0,0.0,97,0.00,,OVC011,0.00,VWS V12.07,2013-07-29 03:18:00,
2013-07-28 22:19:00,50.5,49.7,29.93,North,358,0.0,0.0,97,0.00,,OVC011,0.00,VWS V12.07,2013-07-29 03:19:00,
2013-07-28 22:22:00,50.5,49.4,29.93,North,358,0.0,0.0,96,0.00,,OVC011,0.00,VWS V12.07,2013-07-29 03:22:00,
2013-07-28 22:23:00,50.5,49.4,29.93,North,358,0.0,0.0,96,0.00,,OVC011,0.00,VWS V12.07,2013-07-29 03:23:00,
2013-07-28 22:24:00,50.5,49.4,29.93,North,358,0.0,0.0,96,0.00,,OVC011,0.00,VWS V12.07,2013-07-29 03:24:00,
2013-07-28 22:25:00,50.4,49.3,29.93,North,358,0.0,0.0,96,0.00,,OVC011,0.00,VWS V12.07,2013-07-29 03:25:00,
2013-07-28 22:29:00,50.4,49.6,29.93,North,358,0.0,0.0,97,0.00,,OVC011,0.00,VWS V12.07,2013-07-29 03:29:00,
2013-07-28 22:31:00,50.4,49.3,29.93,North,358,0.0,0.0,96,0.00,,OVC011,0.00,VWS V12.07,2013-07-29 03:31:00,
2013-07-28 22:35:00,50.2,49.4,29.93,North,358,0.0,0.0,97,0.00,,OVC009,0.00,VWS V12.07,2013-07-29 03:35:00,
2013-07-28 22:36:00,50.2,49.4,29.93,North,358,0.0,1.0,97,0.00,,OVC009,0.00,VWS V12.07,2013-07-29 03:36:00,
2013-07-28 22:40:00,50.1,49.3,29.93,NNE,31,0.0,4.0,97,0.00,,OVC009,0.00,VWS V12.07,2013-07-29 03:40:00,
2013-07-28 22:41:00,50.1,49.3,29.93,NNE,31,0.0,4.0,97,0.00,,OVC009,0.00,VWS V12.07,2013-07-29 03:41:00,
2013-07-28 22:45:00,49.9,49.4,29.93,NNE,31,0.0,0.0,98,0.00,,OVC009,0.00,VWS V12.07,2013-07-29 03:45:00,
2013-07-28 22:46:00,49.9,49.4,29.93,NNE,31,0.0,0.0,98,0.00,,OVC009,0.00,VWS V12.07,2013-07-29 03:46:00,
2013-07-28 22:50:00,49.9,49.4,29.93,NNE,31,0.0,0.0,98,0.00,,OVC009,0.00,VWS V12.07,2013-07-29 03:50:00,
2013-07-28 22:51:00,49.9,49.6,29.93,NNE,31,0.0,0.0,99,0.00,,OVC009,0.00,VWS V12.07,2013-07-29 03:51:00,
2013-07-28 22:52:00,49.9,49.6,29.93,NNE,31,0.0,0.0,99,0.00,,OVC009,0.00,VWS V12.07,2013-07-29 03:52:00,
2013-07-28 22:57:00,49.8,49.5,29.93,NNE,31,0.0,1.0,99,0.00,,OVC009,0.00,VWS V12.07,2013-07-29 03:57:00,
2013-07-28 22:58:00,49.8,49.5,29.94,NNE,31,0.0,1.0,99,0.00,,OVC009,0.00,VWS V12.07,2013-07-29 03:58:00,
2013-07-28 23:01:00,49.8,49.5,29.94,NNE,31,0.0,1.0,99,0.00,,OVC009,0.00,VWS V12.07,2013-07-29 04:01:00,
2013-07-28 23:02:00,49.8,49.5,29.94,NNE,31,0.0,1.0,99,0.00,,OVC009,0.00,VWS V12.07,2013-07-29 04:02:00,
2013-07-28 23:06:00,49.8,49.5,29.94,NNE,31,0.0,0.0,99,0.00,,OVC009,0.00,VWS V12.07,2013-07-29 04:06:00,
2013-07-28 23:07:00,49.6,49.3,29.94,NNE,31,0.0,1.0,99,0.00,,OVC009,0.00,VWS V12.07,2013-07-29 04:07:00,
2013-07-28 23:11:00,49.6,49.3,29.94,NNE,31,0.0,2.0,99,0.00,,OVC009,0.00,VWS V12.07,2013-07-29 04:11:00,
2013-07-28 23:12:00,49.6,49.3,29.94,NNE,31,2.0,2.0,99,0.00,,OVC009,0.00,VWS V12.07,2013-07-29 04:12:00,
2013-07-28 23:17:00,49.6,49.6,29.94,NNE,31,0.0,0.0,100,0.00,,OVC009,0.00,VWS V12.07,2013-07-29 04:17:00,
2013-07-28 23:22:00,49.8,49.8,29.94,NNE,31,0.0,2.0,100,0.00,,OVC009,0.00,VWS V12.07,2013-07-29 04:22:00,
2013-07-28 23:23:00,49.8,49.8,29.94,NNE,31,0.0,2.0,100,0.00,,OVC009,0.00,VWS V12.07,2013-07-29 04:23:00,
2013-07-28 23:27:00,49.8,49.8,29.94,NNE,31,0.0,2.0,100,0.00,,OVC009,0.00,VWS V12.07,2013-07-29 04:27:00,
2013-07-28 23:28:00,49.8,49.8,29.94,NNE,31,0.0,2.0,100,0.00,,OVC009,0.00,VWS V12.07,2013-07-29 04:28:00,
2013-07-28 23:32:00,49.9,49.9,29.94,NNE,31,0.0,2.0,100,0.00,,OVC009,0.00,VWS V12.07,2013-07-29 04:32:00,
2013-07-28 23:33:00,49.9,49.9,29.94,NNE,31,0.0,2.0,100,0.00,,OVC009,0.00,VWS V12.07,2013-07-29 04:33:00,
2013-07-28 23:34:00,49.9,49.9,29.94,NNE,31,0.0,0.0,100,0.00,,OVC009,0.00,VWS V12.07,2013-07-29 04:34:00,
2013-07-28 23:37:00,49.9,49.9,29.94,NNE,31,0.0,0.0,100,0.00,,OVC009,0.00,VWS V12.07,2013-07-29 04:37:00,
2013-07-28 23:38:00,49.9,49.9,29.94,NNE,31,0.0,0.0,100,0.00,,OVC009,0.00,VWS V12.07,2013-07-29 04:38:00,
2013-07-28 23:39:00,49.9,49.9,29.94,NNE,31,0.0,0.0,100,0.00,,OVC009,0.00,VWS V12.07,2013-07-29 04:39:00,
2013-07-28 23:40:00,49.9,49.9,29.94,NNE,31,0.0,0.0,100,0.00,,OVC009,0.00,VWS V12.07,2013-07-29 04:40:00,
2013-07-28 23:43:00,49.8,49.8,29.94,NNE,31,0.0,0.0,100,0.00,,OVC009,0.00,VWS V12.07,2013-07-29 04:43:00,
2013-07-28 23:44:00,49.8,49.8,29.94,NNE,31,0.0,0.0,100,0.00,,OVC009,0.00,VWS V12.07,2013-07-29 04:44:00,
2013-07-28 23:45:00,49.8,49.8,29.94,NNE,31,0.0,0.0,100,0.00,,OVC009,0.00,VWS V12.07,2013-07-29 04:45:00,
2013-07-28 23:48:00,49.8,49.8,29.94,NNE,31,0.0,0.0,100,0.00,,OVC009,0.00,VWS V12.07,2013-07-29 04:48:00,
2013-07-28 23:49:00,49.6,49.6,29.94,NNE,31,0.0,0.0,100,0.00,,OVC009,0.00,VWS V12.07,2013-07-29 04:49:00,
2013-07-28 23:50:00,49.6,49.6,29.94,NNE,31,0.0,0.0,100,0.00,,OVC009,0.00,VWS V12.07,2013-07-29 04:50:00,
2013-07-28 23:51:00,49.6,49.6,29.94,NNE,31,0.0,0.0,100,0.00,,OVC009,0.00,VWS V12.07,2013-07-29 04:51:00,
2013-07-28 23:53:00,49.5,49.5,29.94,NE,41,0.0,2.0,100,0.00,,OVC009,0.00,VWS V12.07,2013-07-29 04:53:00,
2013-07-28 23:54:00,49.5,49.5,29.94,NE,56,1.0,1.0,100,0.00,,OVC009,0.00,VWS V12.07,2013-07-29 04:54:00,
2013-07-28 23:55:00,49.5,49.5,29.94,NE,36,0.0,3.0,100,0.00,,OVC009,0.00,VWS V12.07,2013-07-29 04:55:00,
2013-07-28 23:56:00,49.5,49.5,29.94,NE,36,0.0,3.0,100,0.00,,OVC009,0.00,VWS V12.07,2013-07-29 04:56:00,
2013-07-28 23:58:00,49.5,49.5,29.94,NE,47,0.0,3.0,100,0.00,,OVC009,0.00,VWS V12.07,2013-07-29 04:58:00,
2013-07-28 23:59:00,49.5,49.5,29.94,NE,47,0.0,3.0,100,0.00,,OVC009,0.00,VWS V12.07,2013-07-29 04:59:00,